<?xml version="1.0" encoding="UTF-8" standalone="no" ?>
<gpx xmlns="http://www.topografix.com/GPX/1/1" xmlns:xsi="http://www.w3.org/2001/XMLSchema-instance" xsi:schemaLocation="http://www.topografix.com/GPX/1/1 http://www.topografix.com/GPX/1/1/gpx.xsd" version="1.1" creator="VisuGPX - https://www.visugpx.com">
  <metadata>
    <name>Labatie d'Andaure DEB N31 19km 900m IBP 88</name>
  </metadata>
  <trk>
    <name><![CDATA[Labatie d'Andaure DEB N31 19km 900m IBP 88_1]]></name>
    <trkseg>
      <trkpt lat="45.02682" lon="4.49534">
        <ele>495.4</ele>
        <extensions>
          <visugpx:TrkExtension xmlns:visugpx="https://www.visugpx.com/editgpx/">
            <visugpx:node>2</visugpx:node>
            </visugpx:TrkExtension>
        </extensions>
      </trkpt>
      <trkpt lat="45.02682" lon="4.49534">
        <ele>495.4</ele>
      </trkpt>
      <trkpt lat="45.02693" lon="4.49512">
        <ele>500.35</ele>
        <time>2021-02-23T13:48:38.032Z</time>
      </trkpt>
      <trkpt lat="45.02705" lon="4.49472">
        <ele>500.76</ele>
        <time>2021-02-23T13:48:09.695Z</time>
      </trkpt>
      <trkpt lat="45.02719" lon="4.49437">
        <ele>501.8</ele>
        <time>2021-02-23T13:47:50.619Z</time>
      </trkpt>
      <trkpt lat="45.02742" lon="4.49444">
        <ele>498.6</ele>
      </trkpt>
      <trkpt lat="45.02758" lon="4.49471">
        <ele>503.39</ele>
        <time>2021-02-23T13:47:04.431Z</time>
      </trkpt>
      <trkpt lat="45.02772" lon="4.49512">
        <ele>504.09</ele>
        <time>2021-02-23T13:46:36.693Z</time>
      </trkpt>
      <trkpt lat="45.02781" lon="4.49546">
        <ele>505.07</ele>
        <time>2021-02-23T13:46:18.516Z</time>
      </trkpt>
      <trkpt lat="45.02801" lon="4.49586">
        <ele>509</ele>
        <time>2021-02-23T13:45:50.158Z</time>
      </trkpt>
      <trkpt lat="45.02801" lon="4.49615">
        <ele>512.27</ele>
        <time>2021-02-23T13:45:31.000Z</time>
      </trkpt>
      <trkpt lat="45.02798" lon="4.4964">
        <ele>515.49</ele>
        <time>2021-02-23T13:45:12.675Z</time>
      </trkpt>
      <trkpt lat="45.02784" lon="4.49687">
        <ele>521.67</ele>
        <time>2021-02-23T13:44:44.319Z</time>
      </trkpt>
      <trkpt lat="45.02796" lon="4.4969">
        <ele>524.19</ele>
        <time>2021-02-23T13:44:25.603Z</time>
      </trkpt>
      <trkpt lat="45.02817" lon="4.49654">
        <ele>526.18</ele>
        <time>2021-02-23T13:43:57.494Z</time>
      </trkpt>
      <trkpt lat="45.02831" lon="4.49654">
        <ele>529.19</ele>
        <time>2021-02-23T13:43:38.214Z</time>
      </trkpt>
      <trkpt lat="45.02841" lon="4.49659">
        <ele>533.26</ele>
        <time>2021-02-23T13:43:10.420Z</time>
      </trkpt>
      <trkpt lat="45.0286" lon="4.49636">
        <ele>537.7</ele>
        <time>2021-02-23T13:42:51.953Z</time>
      </trkpt>
      <trkpt lat="45.02873" lon="4.49615">
        <ele>543.57</ele>
        <time>2021-02-23T13:42:23.578Z</time>
      </trkpt>
      <trkpt lat="45.0289" lon="4.49599">
        <ele>547.04</ele>
        <time>2021-02-23T13:42:05.219Z</time>
      </trkpt>
      <trkpt lat="45.02919" lon="4.49599">
        <ele>551.61</ele>
        <time>2021-02-23T13:41:37.691Z</time>
      </trkpt>
      <trkpt lat="45.02926" lon="4.49613">
        <ele>553.45</ele>
        <time>2021-02-23T13:41:11.999Z</time>
      </trkpt>
      <trkpt lat="45.02947" lon="4.49655">
        <ele>556.4</ele>
        <time>2021-02-23T13:40:43.999Z</time>
      </trkpt>
      <trkpt lat="45.0296" lon="4.49673">
        <ele>558.66</ele>
        <time>2021-02-23T13:40:25.127Z</time>
      </trkpt>
      <trkpt lat="45.02983" lon="4.49714">
        <ele>562.52</ele>
        <time>2021-02-23T13:39:57.336Z</time>
      </trkpt>
      <trkpt lat="45.03001" lon="4.49729">
        <ele>565.17</ele>
        <time>2021-02-23T13:39:38.218Z</time>
      </trkpt>
      <trkpt lat="45.03032" lon="4.4974">
        <ele>568.03</ele>
        <time>2021-02-23T13:39:10.459Z</time>
      </trkpt>
      <trkpt lat="45.03051" lon="4.49746">
        <ele>572.2</ele>
        <time>2021-02-23T13:38:51.750Z</time>
      </trkpt>
      <trkpt lat="45.03081" lon="4.49783">
        <ele>576.59</ele>
        <time>2021-02-23T13:38:23.315Z</time>
      </trkpt>
      <trkpt lat="45.03105" lon="4.4979">
        <ele>578.41</ele>
        <time>2021-02-23T13:38:04.677Z</time>
      </trkpt>
      <trkpt lat="45.03129" lon="4.49789">
        <ele>580.16</ele>
        <time>2021-02-23T13:37:37.011Z</time>
      </trkpt>
      <trkpt lat="45.03147" lon="4.49772">
        <ele>579.3</ele>
        <time>2021-02-23T13:37:18.573Z</time>
      </trkpt>
      <trkpt lat="45.03167" lon="4.4977">
        <ele>576.47</ele>
        <time>2021-02-23T13:37:00.111Z</time>
      </trkpt>
      <trkpt lat="45.03199" lon="4.49768">
        <ele>581.36</ele>
        <time>2021-02-23T13:36:32.380Z</time>
      </trkpt>
      <trkpt lat="45.03225" lon="4.49756">
        <ele>584.71</ele>
        <time>2021-02-23T13:36:13.561Z</time>
      </trkpt>
      <trkpt lat="45.0325" lon="4.49748">
        <ele>588.26</ele>
        <time>2021-02-23T13:35:45.972Z</time>
      </trkpt>
      <trkpt lat="45.0326" lon="4.4974">
        <ele>590.71</ele>
        <time>2021-02-23T13:35:19.999Z</time>
      </trkpt>
      <trkpt lat="45.03286" lon="4.49745">
        <ele>594.3</ele>
        <time>2021-02-23T13:34:51.415Z</time>
      </trkpt>
      <trkpt lat="45.03293" lon="4.49753">
        <ele>596.31</ele>
        <time>2021-02-23T13:34:33.124Z</time>
      </trkpt>
      <trkpt lat="45.03261" lon="4.49767">
        <ele>600.96</ele>
        <time>2021-02-23T13:34:05.578Z</time>
      </trkpt>
      <trkpt lat="45.03264" lon="4.49774">
        <ele>604.3</ele>
        <time>2021-02-23T13:33:46.811Z</time>
      </trkpt>
      <trkpt lat="45.03292" lon="4.4978">
        <ele>610.79</ele>
        <time>2021-02-23T13:33:18.999Z</time>
      </trkpt>
      <trkpt lat="45.03312" lon="4.49778">
        <ele>615.5</ele>
        <time>2021-02-23T13:32:59.757Z</time>
      </trkpt>
      <trkpt lat="45.03338" lon="4.49775">
        <ele>616.32</ele>
        <time>2021-02-23T13:32:32.219Z</time>
      </trkpt>
      <trkpt lat="45.03354" lon="4.49762">
        <ele>615.94</ele>
        <time>2021-02-23T13:32:13.999Z</time>
      </trkpt>
      <trkpt lat="45.03383" lon="4.49746">
        <ele>610.72</ele>
        <time>2021-02-23T13:31:44.999Z</time>
      </trkpt>
      <trkpt lat="45.03402" lon="4.49752">
        <ele>609.37</ele>
        <time>2021-02-23T13:31:26.395Z</time>
      </trkpt>
      <trkpt lat="45.03429" lon="4.49771">
        <ele>609.13</ele>
        <time>2021-02-23T13:30:58.440Z</time>
      </trkpt>
      <trkpt lat="45.03445" lon="4.49785">
        <ele>609.09</ele>
        <time>2021-02-23T13:30:40.000Z</time>
      </trkpt>
      <trkpt lat="45.03466" lon="4.49811">
        <ele>604.9</ele>
        <time>2021-02-23T13:30:11.640Z</time>
      </trkpt>
      <trkpt lat="45.03478" lon="4.49835">
        <ele>601.93</ele>
        <time>2021-02-23T13:29:52.397Z</time>
      </trkpt>
      <trkpt lat="45.03508" lon="4.49858">
        <ele>598.51</ele>
        <time>2021-02-23T13:29:23.701Z</time>
      </trkpt>
      <trkpt lat="45.03527" lon="4.49876">
        <ele>597.26</ele>
        <time>2021-02-23T13:29:05.241Z</time>
      </trkpt>
      <trkpt lat="45.03542" lon="4.499">
        <ele>596.21</ele>
        <time>2021-02-23T13:28:46.692Z</time>
      </trkpt>
      <trkpt lat="45.03552" lon="4.49944">
        <ele>593.74</ele>
        <time>2021-02-23T13:28:19.132Z</time>
      </trkpt>
      <trkpt lat="45.03559" lon="4.4998">
        <ele>592</ele>
        <time>2021-02-23T13:28:00.558Z</time>
      </trkpt>
      <trkpt lat="45.03593" lon="4.49983">
        <ele>592.66</ele>
        <time>2021-02-23T13:27:32.698Z</time>
      </trkpt>
      <trkpt lat="45.03617" lon="4.49993">
        <ele>593.25</ele>
        <time>2021-02-23T13:27:14.109Z</time>
      </trkpt>
      <trkpt lat="45.03637" lon="4.50026">
        <ele>593.5</ele>
        <time>2021-02-23T13:26:46.136Z</time>
      </trkpt>
      <trkpt lat="45.0366" lon="4.50034">
        <ele>593.31</ele>
        <time>2021-02-23T13:26:27.516Z</time>
      </trkpt>
      <trkpt lat="45.03697" lon="4.50016">
        <ele>593.58</ele>
        <time>2021-02-23T13:25:59.262Z</time>
      </trkpt>
      <trkpt lat="45.03708" lon="4.50007">
        <ele>593.23</ele>
        <time>2021-02-23T13:25:39.000Z</time>
      </trkpt>
      <trkpt lat="45.03717" lon="4.50016">
        <ele>593.52</ele>
        <time>2021-02-23T13:25:08.910Z</time>
      </trkpt>
      <trkpt lat="45.03736" lon="4.5003">
        <ele>593.21</ele>
        <time>2021-02-23T13:24:50.333Z</time>
      </trkpt>
      <trkpt lat="45.03768" lon="4.50052">
        <ele>593.31</ele>
        <time>2021-02-23T13:24:22.258Z</time>
      </trkpt>
      <trkpt lat="45.03782" lon="4.5008">
        <ele>592.07</ele>
        <time>2021-02-23T13:24:03.696Z</time>
      </trkpt>
      <trkpt lat="45.038" lon="4.50114">
        <ele>589.93</ele>
        <time>2021-02-23T13:23:35.495Z</time>
      </trkpt>
      <trkpt lat="45.03814" lon="4.5014">
        <ele>588.78</ele>
        <time>2021-02-23T13:23:17.000Z</time>
      </trkpt>
      <trkpt lat="45.0384" lon="4.50175">
        <ele>586.56</ele>
        <time>2021-02-23T13:22:48.380Z</time>
      </trkpt>
      <trkpt lat="45.0386" lon="4.50198">
        <ele>585.97</ele>
        <time>2021-02-23T13:22:29.421Z</time>
      </trkpt>
      <trkpt lat="45.03852" lon="4.50242">
        <ele>583.95</ele>
        <time>2021-02-23T13:22:01.482Z</time>
      </trkpt>
      <trkpt lat="45.03839" lon="4.50271">
        <ele>582.15</ele>
        <time>2021-02-23T13:21:43.252Z</time>
      </trkpt>
      <trkpt lat="45.03817" lon="4.50315">
        <ele>580.2</ele>
        <time>2021-02-23T13:21:15.000Z</time>
      </trkpt>
      <trkpt lat="45.03811" lon="4.50346">
        <ele>578.73</ele>
        <time>2021-02-23T13:20:55.895Z</time>
      </trkpt>
      <trkpt lat="45.03807" lon="4.50378">
        <ele>577.92</ele>
        <time>2021-02-23T13:20:37.155Z</time>
      </trkpt>
      <trkpt lat="45.03822" lon="4.50413">
        <ele>577.27</ele>
        <time>2021-02-23T13:20:09.018Z</time>
      </trkpt>
      <trkpt lat="45.03843" lon="4.50399">
        <ele>575.78</ele>
        <time>2021-02-23T13:19:50.353Z</time>
      </trkpt>
      <trkpt lat="45.03875" lon="4.50376">
        <ele>574.15</ele>
        <time>2021-02-23T13:19:22.014Z</time>
      </trkpt>
      <trkpt lat="45.03895" lon="4.50363">
        <ele>572.75</ele>
        <time>2021-02-23T13:19:03.594Z</time>
      </trkpt>
      <trkpt lat="45.03922" lon="4.50341">
        <ele>569.94</ele>
        <time>2021-02-23T13:18:35.357Z</time>
      </trkpt>
      <trkpt lat="45.03944" lon="4.50339">
        <ele>567.92</ele>
        <time>2021-02-23T13:18:16.999Z</time>
      </trkpt>
      <trkpt lat="45.03966" lon="4.50375">
        <ele>565.83</ele>
        <time>2021-02-23T13:17:48.999Z</time>
      </trkpt>
      <trkpt lat="45.03984" lon="4.50386">
        <ele>564.06</ele>
        <time>2021-02-23T13:17:30.433Z</time>
      </trkpt>
      <trkpt lat="45.04017" lon="4.50409">
        <ele>562.42</ele>
        <time>2021-02-23T13:17:01.999Z</time>
      </trkpt>
      <trkpt lat="45.04037" lon="4.50419">
        <ele>561.69</ele>
        <time>2021-02-23T13:16:43.111Z</time>
      </trkpt>
      <trkpt lat="45.04067" lon="4.50446">
        <ele>559.79</ele>
        <time>2021-02-23T13:16:14.853Z</time>
      </trkpt>
      <trkpt lat="45.04085" lon="4.50439">
        <ele>558.13</ele>
        <time>2021-02-23T13:15:55.999Z</time>
      </trkpt>
      <trkpt lat="45.0412" lon="4.50433">
        <ele>555.91</ele>
        <time>2021-02-23T13:15:28.456Z</time>
      </trkpt>
      <trkpt lat="45.04138" lon="4.50431">
        <ele>554.06</ele>
        <time>2021-02-23T13:15:10.019Z</time>
      </trkpt>
      <trkpt lat="45.04173" lon="4.50439">
        <ele>551.12</ele>
        <time>2021-02-23T13:14:42.341Z</time>
      </trkpt>
      <trkpt lat="45.04197" lon="4.50432">
        <ele>549.79</ele>
        <time>2021-02-23T13:14:23.571Z</time>
      </trkpt>
      <trkpt lat="45.04229" lon="4.50442">
        <ele>548.07</ele>
        <time>2021-02-23T13:13:55.471Z</time>
      </trkpt>
      <trkpt lat="45.0423" lon="4.50404">
        <ele>548.79</ele>
        <time>2021-02-23T13:13:36.657Z</time>
      </trkpt>
      <trkpt lat="45.04232" lon="4.50459">
        <ele>553.68</ele>
        <time>2021-02-23T13:13:09.301Z</time>
      </trkpt>
      <trkpt lat="45.04248" lon="4.50466">
        <ele>557.09</ele>
        <time>2021-02-23T13:12:50.633Z</time>
      </trkpt>
      <trkpt lat="45.04268" lon="4.50451">
        <ele>558.04</ele>
        <time>2021-02-23T13:12:31.964Z</time>
      </trkpt>
      <trkpt lat="45.04302" lon="4.5044">
        <ele>559.6</ele>
        <time>2021-02-23T13:12:04.219Z</time>
      </trkpt>
      <trkpt lat="45.04323" lon="4.50426">
        <ele>558.83</ele>
        <time>2021-02-23T13:11:45.489Z</time>
      </trkpt>
      <trkpt lat="45.04354" lon="4.50424">
        <ele>558.44</ele>
        <time>2021-02-23T13:11:17.454Z</time>
      </trkpt>
      <trkpt lat="45.04373" lon="4.50408">
        <ele>559.44</ele>
        <time>2021-02-23T13:10:58.373Z</time>
      </trkpt>
      <trkpt lat="45.04412" lon="4.50408">
        <ele>561.22</ele>
        <time>2021-02-23T13:10:30.757Z</time>
      </trkpt>
      <trkpt lat="45.04428" lon="4.50422">
        <ele>563.62</ele>
        <time>2021-02-23T13:10:12.000Z</time>
      </trkpt>
      <trkpt lat="45.04461" lon="4.50426">
        <ele>565.69</ele>
        <time>2021-02-23T13:09:44.493Z</time>
      </trkpt>
      <trkpt lat="45.0448" lon="4.50409">
        <ele>567.96</ele>
        <time>2021-02-23T13:09:26.000Z</time>
      </trkpt>
      <trkpt lat="45.04506" lon="4.50373">
        <ele>570.61</ele>
        <time>2021-02-23T13:08:56.882Z</time>
      </trkpt>
      <trkpt lat="45.04511" lon="4.50342">
        <ele>569.91</ele>
        <time>2021-02-23T13:08:38.131Z</time>
      </trkpt>
      <trkpt lat="45.04508" lon="4.50298">
        <ele>567.09</ele>
        <time>2021-02-23T13:08:10.118Z</time>
      </trkpt>
      <trkpt lat="45.04508" lon="4.50272">
        <ele>566.83</ele>
        <time>2021-02-23T13:07:51.394Z</time>
      </trkpt>
      <trkpt lat="45.04515" lon="4.50231">
        <ele>564.71</ele>
        <time>2021-02-23T13:07:23.280Z</time>
      </trkpt>
      <trkpt lat="45.0452" lon="4.502">
        <ele>563.95</ele>
        <time>2021-02-23T13:07:05.000Z</time>
      </trkpt>
      <trkpt lat="45.04524" lon="4.50172">
        <ele>564.14</ele>
        <time>2021-02-23T13:06:36.236Z</time>
      </trkpt>
      <trkpt lat="45.04525" lon="4.50139">
        <ele>563.11</ele>
        <time>2021-02-23T13:06:17.479Z</time>
      </trkpt>
      <trkpt lat="45.04524" lon="4.50095">
        <ele>561.98</ele>
        <time>2021-02-23T13:05:49.910Z</time>
      </trkpt>
      <trkpt lat="45.04522" lon="4.50067">
        <ele>561.45</ele>
        <time>2021-02-23T13:05:31.370Z</time>
      </trkpt>
      <trkpt lat="45.04519" lon="4.50025">
        <ele>560.13</ele>
        <time>2021-02-23T13:05:03.655Z</time>
      </trkpt>
      <trkpt lat="45.04514" lon="4.50004">
        <ele>558.59</ele>
        <time>2021-02-23T13:04:45.218Z</time>
      </trkpt>
      <trkpt lat="45.04507" lon="4.49978">
        <ele>556.45</ele>
        <time>2021-02-23T13:04:26.240Z</time>
      </trkpt>
      <trkpt lat="45.04509" lon="4.49955">
        <ele>558.4</ele>
        <time>2021-02-23T13:03:57.154Z</time>
      </trkpt>
      <trkpt lat="45.04511" lon="4.49925">
        <ele>559.23</ele>
        <time>2021-02-23T13:03:38.692Z</time>
      </trkpt>
      <trkpt lat="45.04512" lon="4.49887">
        <ele>560.15</ele>
        <time>2021-02-23T13:03:09.000Z</time>
      </trkpt>
      <trkpt lat="45.04514" lon="4.49867">
        <ele>560.98</ele>
        <time>2021-02-23T13:02:50.298Z</time>
      </trkpt>
      <trkpt lat="45.04525" lon="4.49828">
        <ele>562.99</ele>
        <time>2021-02-23T13:02:22.000Z</time>
      </trkpt>
      <trkpt lat="45.04537" lon="4.49802">
        <ele>565.6</ele>
        <time>2021-02-23T13:02:03.110Z</time>
      </trkpt>
      <trkpt lat="45.04549" lon="4.4976">
        <ele>565.04</ele>
        <time>2021-02-23T13:01:35.137Z</time>
      </trkpt>
      <trkpt lat="45.04563" lon="4.49735">
        <ele>565.91</ele>
        <time>2021-02-23T13:01:16.671Z</time>
      </trkpt>
      <trkpt lat="45.04576" lon="4.4972">
        <ele>569.02</ele>
        <time>2021-02-23T13:00:43.756Z</time>
      </trkpt>
      <trkpt lat="45.04592" lon="4.49697">
        <ele>569.88</ele>
        <time>2021-02-23T13:00:25.262Z</time>
      </trkpt>
      <trkpt lat="45.04617" lon="4.49702">
        <ele>567.25</ele>
        <time>2021-02-23T12:59:57.934Z</time>
      </trkpt>
      <trkpt lat="45.04626" lon="4.49733">
        <ele>569.93</ele>
        <time>2021-02-23T12:59:39.376Z</time>
      </trkpt>
      <trkpt lat="45.04644" lon="4.49765">
        <ele>575</ele>
        <time>2021-02-23T12:59:11.637Z</time>
      </trkpt>
      <trkpt lat="45.04651" lon="4.49776">
        <ele>576.89</ele>
        <time>2021-02-23T12:58:52.999Z</time>
      </trkpt>
      <trkpt lat="45.04671" lon="4.498">
        <ele>579.67</ele>
        <time>2021-02-23T12:58:23.999Z</time>
      </trkpt>
      <trkpt lat="45.04687" lon="4.49811">
        <ele>584.16</ele>
        <time>2021-02-23T12:58:05.374Z</time>
      </trkpt>
      <trkpt lat="45.04722" lon="4.49828">
        <ele>587.83</ele>
        <time>2021-02-23T12:57:37.556Z</time>
      </trkpt>
      <trkpt lat="45.04738" lon="4.4983">
        <ele>590.89</ele>
        <time>2021-02-23T12:57:18.999Z</time>
      </trkpt>
      <trkpt lat="45.04758" lon="4.49823">
        <ele>590.01</ele>
        <time>2021-02-23T12:56:50.093Z</time>
      </trkpt>
      <trkpt lat="45.04775" lon="4.4982">
        <ele>589.9</ele>
        <time>2021-02-23T12:56:30.999Z</time>
      </trkpt>
      <trkpt lat="45.04789" lon="4.49802">
        <ele>587.79</ele>
        <time>2021-02-23T12:56:11.999Z</time>
      </trkpt>
      <trkpt lat="45.04811" lon="4.49824">
        <ele>585.69</ele>
        <time>2021-02-23T12:55:43.999Z</time>
      </trkpt>
      <trkpt lat="45.04818" lon="4.49848">
        <ele>584.01</ele>
        <time>2021-02-23T12:55:25.609Z</time>
      </trkpt>
      <trkpt lat="45.04815" lon="4.49891">
        <ele>585.33</ele>
        <time>2021-02-23T12:54:56.533Z</time>
      </trkpt>
      <trkpt lat="45.0482" lon="4.49917">
        <ele>583.33</ele>
        <time>2021-02-23T12:54:37.396Z</time>
      </trkpt>
      <trkpt lat="45.04834" lon="4.49952">
        <ele>579.15</ele>
        <time>2021-02-23T12:54:09.576Z</time>
      </trkpt>
      <trkpt lat="45.04852" lon="4.49967">
        <ele>576.25</ele>
        <time>2021-02-23T12:53:50.999Z</time>
      </trkpt>
      <trkpt lat="45.04867" lon="4.49986">
        <ele>571.48</ele>
        <time>2021-02-23T12:53:22.512Z</time>
      </trkpt>
      <trkpt lat="45.04889" lon="4.49994">
        <ele>567.77</ele>
        <time>2021-02-23T12:53:03.192Z</time>
      </trkpt>
      <trkpt lat="45.0492" lon="4.50011">
        <ele>562.25</ele>
        <time>2021-02-23T12:52:35.643Z</time>
      </trkpt>
      <trkpt lat="45.04931" lon="4.50011">
        <ele>563.08</ele>
        <time>2021-02-23T12:52:13.999Z</time>
      </trkpt>
      <trkpt lat="45.04936" lon="4.50016">
        <ele>563.55</ele>
        <time>2021-02-23T12:51:43.999Z</time>
      </trkpt>
      <trkpt lat="45.04943" lon="4.50028">
        <ele>565.31</ele>
        <time>2021-02-23T12:51:25.631Z</time>
      </trkpt>
      <trkpt lat="45.04975" lon="4.50059">
        <ele>572.9</ele>
        <time>2021-02-23T12:50:56.873Z</time>
      </trkpt>
      <trkpt lat="45.04982" lon="4.50061">
        <ele>576.58</ele>
        <time>2021-02-23T12:50:31.157Z</time>
      </trkpt>
      <trkpt lat="45.04988" lon="4.5006">
        <ele>577.96</ele>
        <time>2021-02-23T12:50:01.999Z</time>
      </trkpt>
      <trkpt lat="45.05003" lon="4.50063">
        <ele>578.33</ele>
        <time>2021-02-23T12:49:43.000Z</time>
      </trkpt>
      <trkpt lat="45.05022" lon="4.50061">
        <ele>574.35</ele>
        <time>2021-02-23T12:49:15.000Z</time>
      </trkpt>
      <trkpt lat="45.05024" lon="4.50055">
        <ele>573.77</ele>
        <time>2021-02-23T12:48:55.709Z</time>
      </trkpt>
      <trkpt lat="45.05045" lon="4.50028">
        <ele>573.47</ele>
        <time>2021-02-23T12:48:27.253Z</time>
      </trkpt>
      <trkpt lat="45.05053" lon="4.50019">
        <ele>570.71</ele>
        <time>2021-02-23T12:48:08.895Z</time>
      </trkpt>
      <trkpt lat="45.05068" lon="4.50016">
        <ele>570.26</ele>
        <time>2021-02-23T12:47:50.000Z</time>
      </trkpt>
      <trkpt lat="45.05082" lon="4.50008">
        <ele>572.42</ele>
        <time>2021-02-23T12:47:21.000Z</time>
      </trkpt>
      <trkpt lat="45.05083" lon="4.50009">
        <ele>573.36</ele>
        <time>2021-02-23T12:47:01.000Z</time>
      </trkpt>
      <trkpt lat="45.05098" lon="4.49981">
        <ele>571.38</ele>
        <time>2021-02-23T12:46:32.022Z</time>
      </trkpt>
      <trkpt lat="45.05105" lon="4.4997">
        <ele>567.18</ele>
        <time>2021-02-23T12:46:13.000Z</time>
      </trkpt>
      <trkpt lat="45.0512" lon="4.49957">
        <ele>564.85</ele>
        <time>2021-02-23T12:45:44.752Z</time>
      </trkpt>
      <trkpt lat="45.05137" lon="4.49949">
        <ele>563.64</ele>
        <time>2021-02-23T12:45:26.315Z</time>
      </trkpt>
      <trkpt lat="45.05167" lon="4.49934">
        <ele>559.04</ele>
        <time>2021-02-23T12:44:58.693Z</time>
      </trkpt>
      <trkpt lat="45.05179" lon="4.49927">
        <ele>555.84</ele>
        <time>2021-02-23T12:44:40.495Z</time>
      </trkpt>
      <trkpt lat="45.05204" lon="4.49906">
        <ele>551.55</ele>
        <time>2021-02-23T12:44:12.000Z</time>
      </trkpt>
      <trkpt lat="45.05213" lon="4.49903">
        <ele>551.89</ele>
        <time>2021-02-23T12:43:53.129Z</time>
      </trkpt>
      <trkpt lat="45.05232" lon="4.4991">
        <ele>548.87</ele>
        <time>2021-02-23T12:43:25.000Z</time>
      </trkpt>
      <trkpt lat="45.05238" lon="4.49915">
        <ele>545.84</ele>
        <time>2021-02-23T12:43:06.000Z</time>
      </trkpt>
      <trkpt lat="45.05249" lon="4.49934">
        <ele>541.15</ele>
        <time>2021-02-23T12:42:38.178Z</time>
      </trkpt>
      <trkpt lat="45.05258" lon="4.49948">
        <ele>539.53</ele>
        <time>2021-02-23T12:42:19.380Z</time>
      </trkpt>
      <trkpt lat="45.05269" lon="4.49949">
        <ele>538.74</ele>
        <time>2021-02-23T12:41:51.000Z</time>
      </trkpt>
      <trkpt lat="45.05275" lon="4.49935">
        <ele>539.09</ele>
        <time>2021-02-23T12:41:28.491Z</time>
      </trkpt>
      <trkpt lat="45.05286" lon="4.49924">
        <ele>542.61</ele>
        <time>2021-02-23T12:41:00.974Z</time>
      </trkpt>
      <trkpt lat="45.05287" lon="4.49946">
        <ele>545.78</ele>
        <time>2021-02-23T12:40:42.135Z</time>
      </trkpt>
      <trkpt lat="45.05287" lon="4.49984">
        <ele>549.37</ele>
        <time>2021-02-23T12:40:14.281Z</time>
      </trkpt>
      <trkpt lat="45.05284" lon="4.50018">
        <ele>552.22</ele>
        <time>2021-02-23T12:39:55.670Z</time>
      </trkpt>
      <trkpt lat="45.05281" lon="4.50051">
        <ele>555.65</ele>
        <time>2021-02-23T12:39:37.000Z</time>
      </trkpt>
      <trkpt lat="45.05274" lon="4.50095">
        <ele>558.86</ele>
        <time>2021-02-23T12:39:08.718Z</time>
      </trkpt>
      <trkpt lat="45.05262" lon="4.50122">
        <ele>559.46</ele>
        <time>2021-02-23T12:38:50.221Z</time>
      </trkpt>
      <trkpt lat="45.05252" lon="4.50172">
        <ele>560.87</ele>
        <time>2021-02-23T12:38:21.999Z</time>
      </trkpt>
      <trkpt lat="45.0524" lon="4.5021">
        <ele>560.87</ele>
        <time>2021-02-23T12:38:02.849Z</time>
      </trkpt>
      <trkpt lat="45.05227" lon="4.50235">
        <ele>564.45</ele>
        <time>2021-02-23T12:37:35.291Z</time>
      </trkpt>
      <trkpt lat="45.0523" lon="4.50261">
        <ele>564.61</ele>
        <time>2021-02-23T12:37:16.692Z</time>
      </trkpt>
      <trkpt lat="45.05233" lon="4.50309">
        <ele>568.15</ele>
        <time>2021-02-23T12:36:48.817Z</time>
      </trkpt>
      <trkpt lat="45.05237" lon="4.50348">
        <ele>570.94</ele>
        <time>2021-02-23T12:36:29.331Z</time>
      </trkpt>
      <trkpt lat="45.05235" lon="4.50401">
        <ele>572.18</ele>
        <time>2021-02-23T12:36:01.100Z</time>
      </trkpt>
      <trkpt lat="45.0523" lon="4.50432">
        <ele>573.76</ele>
        <time>2021-02-23T12:35:42.875Z</time>
      </trkpt>
      <trkpt lat="45.05221" lon="4.50479">
        <ele>575.17</ele>
        <time>2021-02-23T12:35:15.178Z</time>
      </trkpt>
      <trkpt lat="45.0523" lon="4.50514">
        <ele>575.94</ele>
        <time>2021-02-23T12:34:56.118Z</time>
      </trkpt>
      <trkpt lat="45.0525" lon="4.50559">
        <ele>576.49</ele>
        <time>2021-02-23T12:34:27.892Z</time>
      </trkpt>
      <trkpt lat="45.05267" lon="4.50597">
        <ele>577.5</ele>
        <time>2021-02-23T12:34:09.374Z</time>
      </trkpt>
      <trkpt lat="45.05288" lon="4.50627">
        <ele>585.51</ele>
        <time>2021-02-23T12:33:41.276Z</time>
      </trkpt>
      <trkpt lat="45.05299" lon="4.50644">
        <ele>586.38</ele>
        <time>2021-02-23T12:33:23.039Z</time>
      </trkpt>
      <trkpt lat="45.05334" lon="4.5064">
        <ele>591.06</ele>
        <time>2021-02-23T12:32:54.955Z</time>
      </trkpt>
      <trkpt lat="45.05348" lon="4.50631">
        <ele>595.92</ele>
        <time>2021-02-23T12:32:36.723Z</time>
      </trkpt>
      <trkpt lat="45.05378" lon="4.50618">
        <ele>601.09</ele>
        <time>2021-02-23T12:32:08.577Z</time>
      </trkpt>
      <trkpt lat="45.05406" lon="4.50607">
        <ele>605.69</ele>
        <time>2021-02-23T12:31:49.999Z</time>
      </trkpt>
      <trkpt lat="45.05414" lon="4.50596">
        <ele>608.38</ele>
        <time>2021-02-23T12:31:30.999Z</time>
      </trkpt>
      <trkpt lat="45.05447" lon="4.50583">
        <ele>613.32</ele>
        <time>2021-02-23T12:31:02.495Z</time>
      </trkpt>
      <trkpt lat="45.05467" lon="4.50574">
        <ele>616.92</ele>
        <time>2021-02-23T12:30:44.356Z</time>
      </trkpt>
      <trkpt lat="45.05501" lon="4.50572">
        <ele>622.4</ele>
        <time>2021-02-23T12:30:16.380Z</time>
      </trkpt>
      <trkpt lat="45.05517" lon="4.50572">
        <ele>625.65</ele>
        <time>2021-02-23T12:29:57.255Z</time>
      </trkpt>
      <trkpt lat="45.05541" lon="4.50557">
        <ele>629.31</ele>
        <time>2021-02-23T12:29:28.276Z</time>
      </trkpt>
      <trkpt lat="45.05552" lon="4.50539">
        <ele>632.79</ele>
        <time>2021-02-23T12:29:09.696Z</time>
      </trkpt>
      <trkpt lat="45.05574" lon="4.50543">
        <ele>634.7</ele>
        <time>2021-02-23T12:28:41.299Z</time>
      </trkpt>
      <trkpt lat="45.05595" lon="4.50555">
        <ele>638.4</ele>
        <time>2021-02-23T12:28:23.022Z</time>
      </trkpt>
      <trkpt lat="45.05615" lon="4.5058">
        <ele>641.57</ele>
        <time>2021-02-23T12:27:55.000Z</time>
      </trkpt>
      <trkpt lat="45.05626" lon="4.506">
        <ele>643.15</ele>
        <time>2021-02-23T12:27:36.450Z</time>
      </trkpt>
      <trkpt lat="45.0565" lon="4.50591">
        <ele>641.86</ele>
        <time>2021-02-23T12:27:08.397Z</time>
      </trkpt>
      <trkpt lat="45.05674" lon="4.50584">
        <ele>640.25</ele>
        <time>2021-02-23T12:26:50.151Z</time>
      </trkpt>
      <trkpt lat="45.05693" lon="4.5057">
        <ele>638.66</ele>
        <time>2021-02-23T12:26:22.514Z</time>
      </trkpt>
      <trkpt lat="45.05715" lon="4.50551">
        <ele>636.11</ele>
        <time>2021-02-23T12:26:04.117Z</time>
      </trkpt>
      <trkpt lat="45.05724" lon="4.50527">
        <ele>631.17</ele>
        <time>2021-02-23T12:25:36.340Z</time>
      </trkpt>
      <trkpt lat="45.05732" lon="4.50504">
        <ele>628.04</ele>
        <time>2021-02-23T12:25:18.000Z</time>
      </trkpt>
      <trkpt lat="45.0575" lon="4.50468">
        <ele>624.61</ele>
        <time>2021-02-23T12:24:49.790Z</time>
      </trkpt>
      <trkpt lat="45.05767" lon="4.50451">
        <ele>622.61</ele>
        <time>2021-02-23T12:24:31.653Z</time>
      </trkpt>
      <trkpt lat="45.05778" lon="4.50423">
        <ele>619.33</ele>
        <time>2021-02-23T12:24:03.315Z</time>
      </trkpt>
      <trkpt lat="45.05772" lon="4.50414">
        <ele>616.83</ele>
        <time>2021-02-23T12:23:44.576Z</time>
      </trkpt>
      <trkpt lat="45.05765" lon="4.50389">
        <ele>614.26</ele>
        <time>2021-02-23T12:23:26.337Z</time>
      </trkpt>
      <trkpt lat="45.05779" lon="4.5035">
        <ele>609.1</ele>
        <time>2021-02-23T12:22:57.712Z</time>
      </trkpt>
      <trkpt lat="45.05793" lon="4.5033">
        <ele>605.18</ele>
        <time>2021-02-23T12:22:39.000Z</time>
      </trkpt>
      <trkpt lat="45.05797" lon="4.50325">
        <ele>604.79</ele>
        <time>2021-02-23T12:21:06.000Z</time>
      </trkpt>
      <trkpt lat="45.05798" lon="4.50319">
        <ele>604.58</ele>
        <time>2021-02-23T12:20:46.000Z</time>
      </trkpt>
      <trkpt lat="45.05793" lon="4.50311">
        <ele>602.62</ele>
        <time>2021-02-23T12:20:17.000Z</time>
      </trkpt>
      <trkpt lat="45.05786" lon="4.50308">
        <ele>600.14</ele>
        <time>2021-02-23T12:19:57.774Z</time>
      </trkpt>
      <trkpt lat="45.05805" lon="4.50279">
        <ele>597.42</ele>
        <time>2021-02-23T12:19:30.000Z</time>
      </trkpt>
      <trkpt lat="45.05814" lon="4.50251">
        <ele>595.74</ele>
        <time>2021-02-23T12:19:11.000Z</time>
      </trkpt>
      <trkpt lat="45.05824" lon="4.50216">
        <ele>592.15</ele>
        <time>2021-02-23T12:18:42.571Z</time>
      </trkpt>
      <trkpt lat="45.05839" lon="4.50201">
        <ele>591.01</ele>
        <time>2021-02-23T12:18:23.994Z</time>
      </trkpt>
      <trkpt lat="45.0587" lon="4.5017">
        <ele>587.28</ele>
        <time>2021-02-23T12:17:55.755Z</time>
      </trkpt>
      <trkpt lat="45.05861" lon="4.50142">
        <ele>585.54</ele>
        <time>2021-02-23T12:17:35.999Z</time>
      </trkpt>
      <trkpt lat="45.0584" lon="4.50117">
        <ele>582.46</ele>
        <time>2021-02-23T12:17:07.233Z</time>
      </trkpt>
      <trkpt lat="45.05827" lon="4.50101">
        <ele>579.31</ele>
        <time>2021-02-23T12:16:48.637Z</time>
      </trkpt>
      <trkpt lat="45.05809" lon="4.50069">
        <ele>574.87</ele>
        <time>2021-02-23T12:16:19.999Z</time>
      </trkpt>
      <trkpt lat="45.05799" lon="4.50043">
        <ele>571.73</ele>
        <time>2021-02-23T12:16:00.999Z</time>
      </trkpt>
      <trkpt lat="45.05787" lon="4.50006">
        <ele>567.06</ele>
        <time>2021-02-23T12:15:32.999Z</time>
      </trkpt>
      <trkpt lat="45.05787" lon="4.49979">
        <ele>564.08</ele>
        <time>2021-02-23T12:15:14.290Z</time>
      </trkpt>
      <trkpt lat="45.05781" lon="4.4994">
        <ele>559.3</ele>
        <time>2021-02-23T12:14:46.536Z</time>
      </trkpt>
      <trkpt lat="45.05779" lon="4.49908">
        <ele>557.06</ele>
        <time>2021-02-23T12:14:28.121Z</time>
      </trkpt>
      <trkpt lat="45.05781" lon="4.49871">
        <ele>556.94</ele>
        <time>2021-02-23T12:14:09.558Z</time>
      </trkpt>
      <trkpt lat="45.05796" lon="4.49826">
        <ele>554.9</ele>
        <time>2021-02-23T12:13:41.676Z</time>
      </trkpt>
      <trkpt lat="45.05799" lon="4.49801">
        <ele>552.45</ele>
        <time>2021-02-23T12:13:23.160Z</time>
      </trkpt>
      <trkpt lat="45.05802" lon="4.49755">
        <ele>549.08</ele>
        <time>2021-02-23T12:12:55.101Z</time>
      </trkpt>
      <trkpt lat="45.05814" lon="4.49729">
        <ele>550.87</ele>
        <time>2021-02-23T12:12:36.395Z</time>
        <extensions>
          <visugpx:TrkExtension xmlns:visugpx="https://www.visugpx.com/editgpx/">
            <visugpx:node>1</visugpx:node>
            </visugpx:TrkExtension>
        </extensions>
      </trkpt>
      <trkpt lat="45.05813" lon="4.49728">
        <ele>568.1</ele>
      </trkpt>
      <trkpt lat="45.05809" lon="4.49733">
        <ele>567.8</ele>
      </trkpt>
      <trkpt lat="45.05811" lon="4.49726">
        <ele>567.1</ele>
      </trkpt>
      <trkpt lat="45.05815" lon="4.49713">
        <ele>566.1</ele>
      </trkpt>
      <trkpt lat="45.05823" lon="4.49695">
        <ele>564.2</ele>
      </trkpt>
      <trkpt lat="45.05829" lon="4.4968">
        <ele>561.7</ele>
      </trkpt>
      <trkpt lat="45.05831" lon="4.49671">
        <ele>559.8</ele>
      </trkpt>
      <trkpt lat="45.0583" lon="4.49664">
        <ele>558.8</ele>
      </trkpt>
      <trkpt lat="45.05826" lon="4.49652">
        <ele>558.4</ele>
      </trkpt>
      <trkpt lat="45.05811" lon="4.49611">
        <ele>559.3</ele>
      </trkpt>
      <trkpt lat="45.05808" lon="4.49603">
        <ele>560</ele>
      </trkpt>
      <trkpt lat="45.05804" lon="4.49599">
        <ele>560.7</ele>
      </trkpt>
      <trkpt lat="45.05798" lon="4.49599">
        <ele>561.7</ele>
      </trkpt>
      <trkpt lat="45.0579" lon="4.49602">
        <ele>562.9</ele>
      </trkpt>
      <trkpt lat="45.05781" lon="4.49607">
        <ele>563.8</ele>
      </trkpt>
      <trkpt lat="45.05777" lon="4.49609">
        <ele>564.1</ele>
      </trkpt>
      <trkpt lat="45.05757" lon="4.49626">
        <ele>563.8</ele>
      </trkpt>
      <trkpt lat="45.05735" lon="4.49647">
        <ele>567.5</ele>
      </trkpt>
      <trkpt lat="45.05711" lon="4.49668">
        <ele>573.9</ele>
      </trkpt>
      <trkpt lat="45.05696" lon="4.49687">
        <ele>577.8</ele>
      </trkpt>
      <trkpt lat="45.05685" lon="4.49707">
        <ele>579</ele>
      </trkpt>
      <trkpt lat="45.05689" lon="4.49693">
        <ele>580.1</ele>
      </trkpt>
      <trkpt lat="45.05692" lon="4.49683">
        <ele>580.2</ele>
      </trkpt>
      <trkpt lat="45.05695" lon="4.49677">
        <ele>580.1</ele>
      </trkpt>
      <trkpt lat="45.05705" lon="4.4966">
        <ele>578.8</ele>
      </trkpt>
      <trkpt lat="45.05726" lon="4.49632">
        <ele>575.4</ele>
      </trkpt>
      <trkpt lat="45.05742" lon="4.4961">
        <ele>572</ele>
      </trkpt>
      <trkpt lat="45.05757" lon="4.49593">
        <ele>569.7</ele>
      </trkpt>
      <trkpt lat="45.05775" lon="4.49578">
        <ele>569.3</ele>
      </trkpt>
      <trkpt lat="45.05796" lon="4.4956">
        <ele>568.8</ele>
      </trkpt>
      <trkpt lat="45.05823" lon="4.49539">
        <ele>565.8</ele>
      </trkpt>
      <trkpt lat="45.05844" lon="4.49522">
        <ele>564.5</ele>
      </trkpt>
      <trkpt lat="45.05858" lon="4.49507">
        <ele>565</ele>
      </trkpt>
      <trkpt lat="45.05871" lon="4.49492">
        <ele>565.4</ele>
      </trkpt>
      <trkpt lat="45.0588" lon="4.49478">
        <ele>566.1</ele>
      </trkpt>
      <trkpt lat="45.05886" lon="4.49471">
        <ele>566</ele>
      </trkpt>
      <trkpt lat="45.05892" lon="4.49463">
        <ele>565.6</ele>
      </trkpt>
      <trkpt lat="45.05894" lon="4.49445">
        <ele>567.1</ele>
      </trkpt>
      <trkpt lat="45.05892" lon="4.49423">
        <ele>570.1</ele>
      </trkpt>
      <trkpt lat="45.05891" lon="4.49397">
        <ele>572</ele>
      </trkpt>
      <trkpt lat="45.05889" lon="4.49376">
        <ele>573.6</ele>
      </trkpt>
      <trkpt lat="45.05886" lon="4.49357">
        <ele>575.5</ele>
      </trkpt>
      <trkpt lat="45.0588" lon="4.49334">
        <ele>578.6</ele>
      </trkpt>
      <trkpt lat="45.05875" lon="4.49313">
        <ele>580.4</ele>
      </trkpt>
      <trkpt lat="45.05871" lon="4.4929">
        <ele>581.7</ele>
      </trkpt>
      <trkpt lat="45.0587" lon="4.49268">
        <ele>582.1</ele>
      </trkpt>
      <trkpt lat="45.05869" lon="4.49248">
        <ele>582.3</ele>
      </trkpt>
      <trkpt lat="45.05871" lon="4.49224">
        <ele>583</ele>
      </trkpt>
      <trkpt lat="45.05872" lon="4.49197">
        <ele>583.8</ele>
      </trkpt>
      <trkpt lat="45.05875" lon="4.49177">
        <ele>583.7</ele>
      </trkpt>
      <trkpt lat="45.05875" lon="4.49164">
        <ele>584.1</ele>
      </trkpt>
      <trkpt lat="45.05874" lon="4.49149">
        <ele>585.5</ele>
      </trkpt>
      <trkpt lat="45.05871" lon="4.49136">
        <ele>587.8</ele>
      </trkpt>
      <trkpt lat="45.05869" lon="4.49122">
        <ele>589.5</ele>
      </trkpt>
      <trkpt lat="45.05872" lon="4.49087">
        <ele>590.6</ele>
      </trkpt>
      <trkpt lat="45.05875" lon="4.49064">
        <ele>590</ele>
      </trkpt>
      <trkpt lat="45.0588" lon="4.4902">
        <ele>588.7</ele>
      </trkpt>
      <trkpt lat="45.05882" lon="4.4898">
        <ele>587.8</ele>
      </trkpt>
      <trkpt lat="45.05881" lon="4.48939">
        <ele>587.3</ele>
      </trkpt>
      <trkpt lat="45.05878" lon="4.48918">
        <ele>588</ele>
      </trkpt>
      <trkpt lat="45.05873" lon="4.48896">
        <ele>589.3</ele>
      </trkpt>
      <trkpt lat="45.05867" lon="4.48862">
        <ele>590.2</ele>
      </trkpt>
      <trkpt lat="45.05866" lon="4.48836">
        <ele>589.9</ele>
      </trkpt>
      <trkpt lat="45.05865" lon="4.48819">
        <ele>589.7</ele>
      </trkpt>
      <trkpt lat="45.05861" lon="4.48808">
        <ele>590.8</ele>
      </trkpt>
      <trkpt lat="45.05855" lon="4.48796">
        <ele>592.3</ele>
      </trkpt>
      <trkpt lat="45.05855" lon="4.48786">
        <ele>591.7</ele>
      </trkpt>
      <trkpt lat="45.0586" lon="4.48776">
        <ele>589.8</ele>
      </trkpt>
      <trkpt lat="45.05866" lon="4.48767">
        <ele>587.5</ele>
      </trkpt>
      <trkpt lat="45.05869" lon="4.4876">
        <ele>586.6</ele>
      </trkpt>
      <trkpt lat="45.05867" lon="4.48742">
        <ele>586.3</ele>
      </trkpt>
      <trkpt lat="45.05862" lon="4.48725">
        <ele>586.9</ele>
      </trkpt>
      <trkpt lat="45.05854" lon="4.48698">
        <ele>587.5</ele>
      </trkpt>
      <trkpt lat="45.05847" lon="4.48675">
        <ele>587.7</ele>
      </trkpt>
      <trkpt lat="45.05845" lon="4.4866">
        <ele>587.4</ele>
      </trkpt>
      <trkpt lat="45.05843" lon="4.4865">
        <ele>587.6</ele>
      </trkpt>
      <trkpt lat="45.05836" lon="4.48638">
        <ele>588.4</ele>
      </trkpt>
      <trkpt lat="45.05827" lon="4.48624">
        <ele>591.2</ele>
      </trkpt>
      <trkpt lat="45.05818" lon="4.48615">
        <ele>594.4</ele>
      </trkpt>
      <trkpt lat="45.05816" lon="4.48606">
        <ele>594.8</ele>
      </trkpt>
      <trkpt lat="45.05823" lon="4.48589">
        <ele>591.5</ele>
      </trkpt>
      <trkpt lat="45.05832" lon="4.48564">
        <ele>590.8</ele>
      </trkpt>
      <trkpt lat="45.05838" lon="4.4854">
        <ele>592.6</ele>
      </trkpt>
      <trkpt lat="45.05836" lon="4.48525">
        <ele>595.4</ele>
      </trkpt>
      <trkpt lat="45.05839" lon="4.48511">
        <ele>596.9</ele>
      </trkpt>
      <trkpt lat="45.0585" lon="4.4849">
        <ele>596.6</ele>
      </trkpt>
      <trkpt lat="45.0586" lon="4.48471">
        <ele>595.9</ele>
      </trkpt>
      <trkpt lat="45.0587" lon="4.48449">
        <ele>595.3</ele>
      </trkpt>
      <trkpt lat="45.05881" lon="4.48422">
        <ele>594.6</ele>
      </trkpt>
      <trkpt lat="45.0589" lon="4.48396">
        <ele>593.2</ele>
      </trkpt>
      <trkpt lat="45.05896" lon="4.48369">
        <ele>592.8</ele>
      </trkpt>
      <trkpt lat="45.05901" lon="4.48346">
        <ele>592.4</ele>
      </trkpt>
      <trkpt lat="45.05903" lon="4.4833">
        <ele>592.6</ele>
      </trkpt>
      <trkpt lat="45.05904" lon="4.48301">
        <ele>594.9</ele>
      </trkpt>
      <trkpt lat="45.05907" lon="4.48277">
        <ele>595.8</ele>
      </trkpt>
      <trkpt lat="45.05911" lon="4.48256">
        <ele>595.8</ele>
      </trkpt>
      <trkpt lat="45.05918" lon="4.48229">
        <ele>594.3</ele>
      </trkpt>
      <trkpt lat="45.05923" lon="4.48205">
        <ele>593.9</ele>
      </trkpt>
      <trkpt lat="45.05927" lon="4.48185">
        <ele>593.8</ele>
      </trkpt>
      <trkpt lat="45.05929" lon="4.4817">
        <ele>593.9</ele>
      </trkpt>
      <trkpt lat="45.05928" lon="4.4816">
        <ele>594.4</ele>
      </trkpt>
      <trkpt lat="45.05926" lon="4.48149">
        <ele>595.4</ele>
      </trkpt>
      <trkpt lat="45.05922" lon="4.48136">
        <ele>596.8</ele>
      </trkpt>
      <trkpt lat="45.05921" lon="4.48128">
        <ele>597.6</ele>
      </trkpt>
      <trkpt lat="45.05922" lon="4.4812">
        <ele>597.9</ele>
      </trkpt>
      <trkpt lat="45.05925" lon="4.48113">
        <ele>597.7</ele>
      </trkpt>
      <trkpt lat="45.05931" lon="4.48102">
        <ele>597.2</ele>
      </trkpt>
      <trkpt lat="45.0594" lon="4.48082">
        <ele>596.6</ele>
      </trkpt>
      <trkpt lat="45.0595" lon="4.48054">
        <ele>596.9</ele>
      </trkpt>
      <trkpt lat="45.05954" lon="4.48036">
        <ele>597.5</ele>
      </trkpt>
      <trkpt lat="45.05956" lon="4.48025">
        <ele>598.1</ele>
      </trkpt>
      <trkpt lat="45.05955" lon="4.48013">
        <ele>599.1</ele>
      </trkpt>
      <trkpt lat="45.05954" lon="4.47997">
        <ele>600.6</ele>
      </trkpt>
      <trkpt lat="45.05949" lon="4.47979">
        <ele>602.6</ele>
      </trkpt>
      <trkpt lat="45.05943" lon="4.47961">
        <ele>604.6</ele>
      </trkpt>
      <trkpt lat="45.05937" lon="4.47952">
        <ele>605.9</ele>
      </trkpt>
      <trkpt lat="45.05933" lon="4.47938">
        <ele>606.9</ele>
      </trkpt>
      <trkpt lat="45.05929" lon="4.47923">
        <ele>607.8</ele>
      </trkpt>
      <trkpt lat="45.05929" lon="4.47906">
        <ele>608.7</ele>
      </trkpt>
      <trkpt lat="45.05929" lon="4.47898">
        <ele>609.2</ele>
      </trkpt>
      <trkpt lat="45.0593" lon="4.47891">
        <ele>609.6</ele>
      </trkpt>
      <trkpt lat="45.05933" lon="4.47879">
        <ele>610.2</ele>
      </trkpt>
      <trkpt lat="45.05937" lon="4.4787">
        <ele>610.7</ele>
      </trkpt>
      <trkpt lat="45.05943" lon="4.47868">
        <ele>610.8</ele>
      </trkpt>
      <trkpt lat="45.0595" lon="4.47871">
        <ele>610.4</ele>
      </trkpt>
      <trkpt lat="45.05957" lon="4.47875">
        <ele>609.8</ele>
      </trkpt>
      <trkpt lat="45.05967" lon="4.47888">
        <ele>608.1</ele>
      </trkpt>
      <trkpt lat="45.05978" lon="4.479">
        <ele>606</ele>
      </trkpt>
      <trkpt lat="45.05991" lon="4.47913">
        <ele>603.2</ele>
      </trkpt>
      <trkpt lat="45.06004" lon="4.47925">
        <ele>601.2</ele>
      </trkpt>
      <trkpt lat="45.06017" lon="4.47931">
        <ele>600.9</ele>
      </trkpt>
      <trkpt lat="45.06028" lon="4.47935">
        <ele>600.9</ele>
      </trkpt>
      <trkpt lat="45.06037" lon="4.47935">
        <ele>601.3</ele>
      </trkpt>
      <trkpt lat="45.06043" lon="4.47935">
        <ele>601.5</ele>
      </trkpt>
      <trkpt lat="45.06058" lon="4.47936">
        <ele>602.1</ele>
      </trkpt>
      <trkpt lat="45.06071" lon="4.47935">
        <ele>602.9</ele>
      </trkpt>
      <trkpt lat="45.06081" lon="4.47937">
        <ele>603</ele>
      </trkpt>
      <trkpt lat="45.06088" lon="4.47939">
        <ele>602.5</ele>
      </trkpt>
      <trkpt lat="45.06095" lon="4.47938">
        <ele>602.1</ele>
      </trkpt>
      <trkpt lat="45.06103" lon="4.47936">
        <ele>601.9</ele>
      </trkpt>
      <trkpt lat="45.0611" lon="4.47933">
        <ele>601.8</ele>
      </trkpt>
      <trkpt lat="45.06118" lon="4.47927">
        <ele>601.8</ele>
      </trkpt>
      <trkpt lat="45.06126" lon="4.47916">
        <ele>602.1</ele>
      </trkpt>
      <trkpt lat="45.06132" lon="4.47903">
        <ele>604.5</ele>
      </trkpt>
      <trkpt lat="45.06135" lon="4.47891">
        <ele>606.9</ele>
      </trkpt>
      <trkpt lat="45.06138" lon="4.47884">
        <ele>608.3</ele>
      </trkpt>
      <trkpt lat="45.06147" lon="4.47868">
        <ele>611.1</ele>
      </trkpt>
      <trkpt lat="45.06158" lon="4.47851">
        <ele>613.9</ele>
      </trkpt>
      <trkpt lat="45.06172" lon="4.47826">
        <ele>618.8</ele>
      </trkpt>
      <trkpt lat="45.06183" lon="4.47809">
        <ele>623.3</ele>
      </trkpt>
      <trkpt lat="45.06192" lon="4.47796">
        <ele>625.4</ele>
      </trkpt>
      <trkpt lat="45.06203" lon="4.47785">
        <ele>625.8</ele>
      </trkpt>
      <trkpt lat="45.0621" lon="4.47776">
        <ele>626.2</ele>
      </trkpt>
      <trkpt lat="45.06218" lon="4.47763">
        <ele>627.2</ele>
      </trkpt>
      <trkpt lat="45.06226" lon="4.47753">
        <ele>626.4</ele>
      </trkpt>
      <trkpt lat="45.06236" lon="4.47746">
        <ele>624.2</ele>
      </trkpt>
      <trkpt lat="45.06245" lon="4.47741">
        <ele>622</ele>
      </trkpt>
      <trkpt lat="45.06257" lon="4.47736">
        <ele>620.8</ele>
      </trkpt>
      <trkpt lat="45.06262" lon="4.47735">
        <ele>620.2</ele>
      </trkpt>
      <trkpt lat="45.06268" lon="4.47733">
        <ele>619.7</ele>
      </trkpt>
      <trkpt lat="45.06281" lon="4.47732">
        <ele>617.5</ele>
      </trkpt>
      <trkpt lat="45.06293" lon="4.47732">
        <ele>614.9</ele>
      </trkpt>
      <trkpt lat="45.06304" lon="4.47732">
        <ele>612.6</ele>
      </trkpt>
      <trkpt lat="45.06316" lon="4.47731">
        <ele>610.1</ele>
      </trkpt>
      <trkpt lat="45.06326" lon="4.47732">
        <ele>607.8</ele>
      </trkpt>
      <trkpt lat="45.06336" lon="4.47731">
        <ele>606.5</ele>
      </trkpt>
      <trkpt lat="45.06341" lon="4.47728">
        <ele>606.9</ele>
      </trkpt>
      <trkpt lat="45.06346" lon="4.47723">
        <ele>607.6</ele>
      </trkpt>
      <trkpt lat="45.06351" lon="4.47715">
        <ele>608.5</ele>
      </trkpt>
      <trkpt lat="45.06354" lon="4.47706">
        <ele>609.4</ele>
      </trkpt>
      <trkpt lat="45.06357" lon="4.47681">
        <ele>612.1</ele>
      </trkpt>
      <trkpt lat="45.06356" lon="4.47655">
        <ele>615.4</ele>
      </trkpt>
      <trkpt lat="45.06352" lon="4.47633">
        <ele>618.7</ele>
      </trkpt>
      <trkpt lat="45.0635" lon="4.47608">
        <ele>622.3</ele>
      </trkpt>
      <trkpt lat="45.0635" lon="4.47582">
        <ele>625.4</ele>
      </trkpt>
      <trkpt lat="45.06348" lon="4.47559">
        <ele>626.1</ele>
      </trkpt>
      <trkpt lat="45.06346" lon="4.47527">
        <ele>626.7</ele>
      </trkpt>
      <trkpt lat="45.06345" lon="4.47504">
        <ele>627.2</ele>
      </trkpt>
      <trkpt lat="45.06343" lon="4.4749">
        <ele>627.2</ele>
      </trkpt>
      <trkpt lat="45.0634" lon="4.47483">
        <ele>627.8</ele>
      </trkpt>
      <trkpt lat="45.06333" lon="4.47478">
        <ele>628.9</ele>
      </trkpt>
      <trkpt lat="45.06328" lon="4.47468">
        <ele>632.4</ele>
      </trkpt>
      <trkpt lat="45.06326" lon="4.47459">
        <ele>632.8</ele>
      </trkpt>
      <trkpt lat="45.06323" lon="4.4744">
        <ele>634.2</ele>
      </trkpt>
      <trkpt lat="45.0632" lon="4.47416">
        <ele>635.1</ele>
      </trkpt>
      <trkpt lat="45.0632" lon="4.47393">
        <ele>634</ele>
      </trkpt>
      <trkpt lat="45.06318" lon="4.47369">
        <ele>633.8</ele>
      </trkpt>
      <trkpt lat="45.06318" lon="4.47347">
        <ele>632.3</ele>
      </trkpt>
      <trkpt lat="45.06318" lon="4.47328">
        <ele>630.4</ele>
      </trkpt>
      <trkpt lat="45.06318" lon="4.47314">
        <ele>629.7</ele>
      </trkpt>
      <trkpt lat="45.06317" lon="4.473">
        <ele>629.8</ele>
      </trkpt>
      <trkpt lat="45.06315" lon="4.47287">
        <ele>630.5</ele>
      </trkpt>
      <trkpt lat="45.06308" lon="4.47266">
        <ele>633.6</ele>
      </trkpt>
      <trkpt lat="45.06301" lon="4.47241">
        <ele>637.4</ele>
      </trkpt>
      <trkpt lat="45.06293" lon="4.47208">
        <ele>640.7</ele>
      </trkpt>
      <trkpt lat="45.0629" lon="4.47184">
        <ele>641.8</ele>
      </trkpt>
      <trkpt lat="45.06289" lon="4.47165">
        <ele>641.6</ele>
      </trkpt>
      <trkpt lat="45.06288" lon="4.47146">
        <ele>641.6</ele>
      </trkpt>
      <trkpt lat="45.06286" lon="4.47124">
        <ele>642</ele>
      </trkpt>
      <trkpt lat="45.06283" lon="4.47108">
        <ele>642.8</ele>
        <extensions>
          <visugpx:TrkExtension xmlns:visugpx="https://www.visugpx.com/editgpx/">
            <visugpx:node>3</visugpx:node>
            </visugpx:TrkExtension>
        </extensions>
      </trkpt>
      <trkpt lat="45.06283" lon="4.47108">
        <ele>642.8</ele>
      </trkpt>
      <trkpt lat="45.0628" lon="4.47093">
        <ele>644.1</ele>
      </trkpt>
      <trkpt lat="45.06272" lon="4.47086">
        <ele>648</ele>
      </trkpt>
      <trkpt lat="45.06266" lon="4.47074">
        <ele>649.8</ele>
      </trkpt>
      <trkpt lat="45.06258" lon="4.47052">
        <ele>651.4</ele>
      </trkpt>
      <trkpt lat="45.06249" lon="4.47001">
        <ele>649.9</ele>
      </trkpt>
      <trkpt lat="45.06245" lon="4.46983">
        <ele>651.5</ele>
      </trkpt>
      <trkpt lat="45.06241" lon="4.46957">
        <ele>652.7</ele>
      </trkpt>
      <trkpt lat="45.06236" lon="4.46934">
        <ele>654.4</ele>
      </trkpt>
      <trkpt lat="45.06232" lon="4.46911">
        <ele>656.1</ele>
      </trkpt>
      <trkpt lat="45.06229" lon="4.46887">
        <ele>658.7</ele>
      </trkpt>
      <trkpt lat="45.06225" lon="4.46856">
        <ele>661.7</ele>
      </trkpt>
      <trkpt lat="45.06222" lon="4.4683">
        <ele>663.9</ele>
      </trkpt>
      <trkpt lat="45.06222" lon="4.46813">
        <ele>663.8</ele>
      </trkpt>
      <trkpt lat="45.06222" lon="4.46797">
        <ele>664</ele>
      </trkpt>
      <trkpt lat="45.06223" lon="4.46782">
        <ele>663.6</ele>
      </trkpt>
      <trkpt lat="45.06213" lon="4.46796">
        <ele>668.9</ele>
        <extensions>
          <visugpx:TrkExtension xmlns:visugpx="https://www.visugpx.com/editgpx/">
            <visugpx:node>4</visugpx:node>
            </visugpx:TrkExtension>
        </extensions>
      </trkpt>
      <trkpt lat="45.06213" lon="4.46798">
        <ele>669.4</ele>
      </trkpt>
      <trkpt lat="45.06204" lon="4.46808">
        <ele>673.9</ele>
      </trkpt>
      <trkpt lat="45.06197" lon="4.46821">
        <ele>678.2</ele>
      </trkpt>
      <trkpt lat="45.0619" lon="4.46839">
        <ele>681.9</ele>
      </trkpt>
      <trkpt lat="45.06186" lon="4.46856">
        <ele>684.3</ele>
      </trkpt>
      <trkpt lat="45.06182" lon="4.46873">
        <ele>686.7</ele>
      </trkpt>
      <trkpt lat="45.06178" lon="4.46891">
        <ele>689</ele>
      </trkpt>
      <trkpt lat="45.06165" lon="4.4685">
        <ele>696.4</ele>
      </trkpt>
      <trkpt lat="45.06156" lon="4.46813">
        <ele>701</ele>
      </trkpt>
      <trkpt lat="45.06154" lon="4.46766">
        <ele>701.2</ele>
      </trkpt>
      <trkpt lat="45.06141" lon="4.46726">
        <ele>704.8</ele>
      </trkpt>
      <trkpt lat="45.06125" lon="4.46698">
        <ele>709.1</ele>
      </trkpt>
      <trkpt lat="45.06096" lon="4.46661">
        <ele>717.2</ele>
      </trkpt>
      <trkpt lat="45.0607" lon="4.46629">
        <ele>721.4</ele>
      </trkpt>
      <trkpt lat="45.0604" lon="4.46604">
        <ele>727.2</ele>
      </trkpt>
      <trkpt lat="45.06013" lon="4.46592">
        <ele>733.8</ele>
      </trkpt>
      <trkpt lat="45.06002" lon="4.46586">
        <ele>735.9</ele>
        <extensions>
          <visugpx:TrkExtension xmlns:visugpx="https://www.visugpx.com/editgpx/">
            <visugpx:node>5</visugpx:node>
            </visugpx:TrkExtension>
        </extensions>
      </trkpt>
      <trkpt lat="45.05989" lon="4.46578">
        <ele>736.5</ele>
      </trkpt>
      <trkpt lat="45.05941" lon="4.4658">
        <ele>746.8</ele>
      </trkpt>
      <trkpt lat="45.05911" lon="4.46584">
        <ele>754.1</ele>
      </trkpt>
      <trkpt lat="45.05882" lon="4.46605">
        <ele>764.5</ele>
      </trkpt>
      <trkpt lat="45.05858" lon="4.46614">
        <ele>769.8</ele>
      </trkpt>
      <trkpt lat="45.05845" lon="4.46624">
        <ele>773.8</ele>
      </trkpt>
      <trkpt lat="45.05817" lon="4.46621">
        <ele>776.1</ele>
      </trkpt>
      <trkpt lat="45.05788" lon="4.46618">
        <ele>778.5</ele>
      </trkpt>
      <trkpt lat="45.0563" lon="4.46606">
        <ele>797.6</ele>
      </trkpt>
      <trkpt lat="45.05631" lon="4.46607">
        <ele>797.4</ele>
        <extensions>
          <visugpx:TrkExtension xmlns:visugpx="https://www.visugpx.com/editgpx/">
            <visugpx:node>6</visugpx:node>
            </visugpx:TrkExtension>
        </extensions>
      </trkpt>
      <trkpt lat="45.0563" lon="4.46606">
        <ele>797.6</ele>
      </trkpt>
      <trkpt lat="45.05617" lon="4.46591">
        <ele>799.8</ele>
      </trkpt>
      <trkpt lat="45.05605" lon="4.46581">
        <ele>801.6</ele>
      </trkpt>
      <trkpt lat="45.056" lon="4.46577">
        <ele>802.2</ele>
      </trkpt>
      <trkpt lat="45.05593" lon="4.46567">
        <ele>803.4</ele>
      </trkpt>
      <trkpt lat="45.05586" lon="4.46556">
        <ele>805</ele>
      </trkpt>
      <trkpt lat="45.05575" lon="4.46543">
        <ele>806.4</ele>
      </trkpt>
      <trkpt lat="45.05565" lon="4.46533">
        <ele>807.3</ele>
      </trkpt>
      <trkpt lat="45.05556" lon="4.46521">
        <ele>808.8</ele>
      </trkpt>
      <trkpt lat="45.0555" lon="4.46512">
        <ele>810.1</ele>
      </trkpt>
      <trkpt lat="45.05544" lon="4.465">
        <ele>811.9</ele>
      </trkpt>
      <trkpt lat="45.05535" lon="4.46489">
        <ele>812.5</ele>
      </trkpt>
      <trkpt lat="45.05523" lon="4.46473">
        <ele>814</ele>
      </trkpt>
      <trkpt lat="45.05513" lon="4.46454">
        <ele>815.8</ele>
      </trkpt>
      <trkpt lat="45.05503" lon="4.46434">
        <ele>818.4</ele>
      </trkpt>
      <trkpt lat="45.05492" lon="4.4641">
        <ele>819.2</ele>
      </trkpt>
      <trkpt lat="45.05484" lon="4.46396">
        <ele>819</ele>
      </trkpt>
      <trkpt lat="45.05466" lon="4.46375">
        <ele>819.4</ele>
      </trkpt>
      <trkpt lat="45.05454" lon="4.46362">
        <ele>820.3</ele>
      </trkpt>
      <trkpt lat="45.0545" lon="4.46367">
        <ele>819.6</ele>
        <extensions>
          <visugpx:TrkExtension xmlns:visugpx="https://www.visugpx.com/editgpx/">
            <visugpx:node>7</visugpx:node>
            </visugpx:TrkExtension>
        </extensions>
      </trkpt>
      <trkpt lat="45.0545" lon="4.46367">
        <ele>819.6</ele>
      </trkpt>
      <trkpt lat="45.05454" lon="4.46362">
        <ele>820.3</ele>
      </trkpt>
      <trkpt lat="45.05447" lon="4.46353">
        <ele>821.4</ele>
      </trkpt>
      <trkpt lat="45.0544" lon="4.46345">
        <ele>822.4</ele>
      </trkpt>
      <trkpt lat="45.05434" lon="4.46335">
        <ele>824.2</ele>
      </trkpt>
      <trkpt lat="45.05429" lon="4.46322">
        <ele>825.9</ele>
      </trkpt>
      <trkpt lat="45.05421" lon="4.4631">
        <ele>828.1</ele>
      </trkpt>
      <trkpt lat="45.05412" lon="4.46296">
        <ele>830.4</ele>
      </trkpt>
      <trkpt lat="45.05403" lon="4.46283">
        <ele>832.6</ele>
      </trkpt>
      <trkpt lat="45.05393" lon="4.46273">
        <ele>834.6</ele>
      </trkpt>
      <trkpt lat="45.05384" lon="4.46267">
        <ele>836.2</ele>
      </trkpt>
      <trkpt lat="45.05376" lon="4.46263">
        <ele>837.3</ele>
      </trkpt>
      <trkpt lat="45.05368" lon="4.46263">
        <ele>837.7</ele>
      </trkpt>
      <trkpt lat="45.05361" lon="4.46263">
        <ele>838.1</ele>
      </trkpt>
      <trkpt lat="45.05356" lon="4.46262">
        <ele>838.6</ele>
      </trkpt>
      <trkpt lat="45.0535" lon="4.46257">
        <ele>840.1</ele>
      </trkpt>
      <trkpt lat="45.05338" lon="4.46247">
        <ele>843.2</ele>
      </trkpt>
      <trkpt lat="45.0533" lon="4.4624">
        <ele>844.8</ele>
      </trkpt>
      <trkpt lat="45.05318" lon="4.46233">
        <ele>847</ele>
      </trkpt>
      <trkpt lat="45.05297" lon="4.46227">
        <ele>850.3</ele>
      </trkpt>
      <trkpt lat="45.05266" lon="4.46216">
        <ele>856</ele>
      </trkpt>
      <trkpt lat="45.05253" lon="4.46211">
        <ele>858.4</ele>
      </trkpt>
      <trkpt lat="45.05242" lon="4.46208">
        <ele>860</ele>
      </trkpt>
      <trkpt lat="45.05201" lon="4.46198">
        <ele>864.4</ele>
      </trkpt>
      <trkpt lat="45.05184" lon="4.46195">
        <ele>866</ele>
      </trkpt>
      <trkpt lat="45.05177" lon="4.46192">
        <ele>867.2</ele>
      </trkpt>
      <trkpt lat="45.05169" lon="4.46187">
        <ele>868.6</ele>
      </trkpt>
      <trkpt lat="45.05168" lon="4.46187">
        <ele>868.9</ele>
      </trkpt>
      <trkpt lat="45.0516" lon="4.46181">
        <ele>870.9</ele>
      </trkpt>
      <trkpt lat="45.05143" lon="4.46168">
        <ele>875.3</ele>
      </trkpt>
      <trkpt lat="45.05126" lon="4.46154">
        <ele>879.1</ele>
      </trkpt>
      <trkpt lat="45.05109" lon="4.46141">
        <ele>883.4</ele>
      </trkpt>
      <trkpt lat="45.05108" lon="4.4614">
        <ele>883.8</ele>
      </trkpt>
      <trkpt lat="45.05102" lon="4.46137">
        <ele>885.4</ele>
        <extensions>
          <visugpx:TrkExtension xmlns:visugpx="https://www.visugpx.com/editgpx/">
            <visugpx:node>8</visugpx:node>
            </visugpx:TrkExtension>
        </extensions>
      </trkpt>
      <trkpt lat="45.05108" lon="4.4614">
        <ele>883.8</ele>
      </trkpt>
      <trkpt lat="45.05109" lon="4.46141">
        <ele>883.4</ele>
      </trkpt>
      <trkpt lat="45.05109" lon="4.46097">
        <ele>892.7</ele>
      </trkpt>
      <trkpt lat="45.05106" lon="4.46096">
        <ele>893.6</ele>
        <extensions>
          <visugpx:TrkExtension xmlns:visugpx="https://www.visugpx.com/editgpx/">
            <visugpx:node>9</visugpx:node>
            </visugpx:TrkExtension>
        </extensions>
      </trkpt>
      <trkpt lat="45.05052" lon="4.46079">
        <ele>909.5</ele>
      </trkpt>
      <trkpt lat="45.05016" lon="4.4607">
        <ele>919.4</ele>
      </trkpt>
      <trkpt lat="45.04983" lon="4.46078">
        <ele>924.3</ele>
      </trkpt>
      <trkpt lat="45.04945" lon="4.46079">
        <ele>931.4</ele>
      </trkpt>
      <trkpt lat="45.04915" lon="4.46086">
        <ele>936.2</ele>
      </trkpt>
      <trkpt lat="45.04893" lon="4.46095">
        <ele>941.1</ele>
      </trkpt>
      <trkpt lat="45.04874" lon="4.4609">
        <ele>946.9</ele>
      </trkpt>
      <trkpt lat="45.04863" lon="4.4608">
        <ele>951.3</ele>
      </trkpt>
      <trkpt lat="45.04839" lon="4.46038">
        <ele>962.5</ele>
      </trkpt>
      <trkpt lat="45.04833" lon="4.46035">
        <ele>964.2</ele>
        <extensions>
          <visugpx:TrkExtension xmlns:visugpx="https://www.visugpx.com/editgpx/">
            <visugpx:node>10</visugpx:node>
            </visugpx:TrkExtension>
        </extensions>
      </trkpt>
      <trkpt lat="45.04815" lon="4.46026">
        <ele>967.6</ele>
      </trkpt>
      <trkpt lat="45.04809" lon="4.46023">
        <ele>968.6</ele>
      </trkpt>
      <trkpt lat="45.04805" lon="4.46022">
        <ele>969.3</ele>
      </trkpt>
      <trkpt lat="45.04798" lon="4.46021">
        <ele>970.3</ele>
      </trkpt>
      <trkpt lat="45.04792" lon="4.46019">
        <ele>971.2</ele>
      </trkpt>
      <trkpt lat="45.04788" lon="4.46019">
        <ele>971.8</ele>
      </trkpt>
      <trkpt lat="45.04784" lon="4.46019">
        <ele>972.3</ele>
      </trkpt>
      <trkpt lat="45.04779" lon="4.46021">
        <ele>972.7</ele>
      </trkpt>
      <trkpt lat="45.04775" lon="4.46024">
        <ele>973.1</ele>
      </trkpt>
      <trkpt lat="45.04769" lon="4.46024">
        <ele>973.8</ele>
      </trkpt>
      <trkpt lat="45.04763" lon="4.46024">
        <ele>974.6</ele>
      </trkpt>
      <trkpt lat="45.04756" lon="4.46021">
        <ele>975.7</ele>
      </trkpt>
      <trkpt lat="45.04752" lon="4.46018">
        <ele>976.4</ele>
      </trkpt>
      <trkpt lat="45.04749" lon="4.46015">
        <ele>977.1</ele>
      </trkpt>
      <trkpt lat="45.04746" lon="4.46009">
        <ele>977.8</ele>
      </trkpt>
      <trkpt lat="45.0474" lon="4.46001">
        <ele>979</ele>
      </trkpt>
      <trkpt lat="45.04736" lon="4.45993">
        <ele>979.9</ele>
      </trkpt>
      <trkpt lat="45.04732" lon="4.45987">
        <ele>980.8</ele>
      </trkpt>
      <trkpt lat="45.0473" lon="4.4598">
        <ele>981.4</ele>
      </trkpt>
      <trkpt lat="45.04724" lon="4.45972">
        <ele>982.5</ele>
      </trkpt>
      <trkpt lat="45.04716" lon="4.45963">
        <ele>983.9</ele>
      </trkpt>
      <trkpt lat="45.047" lon="4.45948">
        <ele>986.6</ele>
      </trkpt>
      <trkpt lat="45.04694" lon="4.45943">
        <ele>987.5</ele>
      </trkpt>
      <trkpt lat="45.04691" lon="4.4594">
        <ele>988</ele>
      </trkpt>
      <trkpt lat="45.04688" lon="4.45944">
        <ele>988</ele>
      </trkpt>
      <trkpt lat="45.04688" lon="4.45945">
        <ele>988</ele>
        <extensions>
          <visugpx:TrkExtension xmlns:visugpx="https://www.visugpx.com/editgpx/">
            <visugpx:node>11</visugpx:node>
            </visugpx:TrkExtension>
        </extensions>
      </trkpt>
      <trkpt lat="45.04679" lon="4.45964">
        <ele>987.9</ele>
      </trkpt>
      <trkpt lat="45.04669" lon="4.45984">
        <ele>987.7</ele>
      </trkpt>
      <trkpt lat="45.04663" lon="4.4599">
        <ele>987.3</ele>
      </trkpt>
      <trkpt lat="45.0466" lon="4.45992">
        <ele>986.8</ele>
      </trkpt>
      <trkpt lat="45.04653" lon="4.45991">
        <ele>986.1</ele>
      </trkpt>
      <trkpt lat="45.04643" lon="4.45988">
        <ele>985.3</ele>
      </trkpt>
      <trkpt lat="45.04638" lon="4.45984">
        <ele>985.1</ele>
      </trkpt>
      <trkpt lat="45.04632" lon="4.4598">
        <ele>984.7</ele>
      </trkpt>
      <trkpt lat="45.04631" lon="4.45982">
        <ele>984.5</ele>
        <extensions>
          <visugpx:TrkExtension xmlns:visugpx="https://www.visugpx.com/editgpx/">
            <visugpx:node>12</visugpx:node>
            </visugpx:TrkExtension>
        </extensions>
      </trkpt>
      <trkpt lat="45.04635" lon="4.45968">
        <ele>985.6</ele>
      </trkpt>
      <trkpt lat="45.04637" lon="4.45955">
        <ele>986.5</ele>
      </trkpt>
      <trkpt lat="45.04638" lon="4.45943">
        <ele>987.2</ele>
      </trkpt>
      <trkpt lat="45.04638" lon="4.45935">
        <ele>987.7</ele>
      </trkpt>
      <trkpt lat="45.04637" lon="4.45928">
        <ele>987.9</ele>
      </trkpt>
      <trkpt lat="45.04635" lon="4.45918">
        <ele>988.2</ele>
      </trkpt>
      <trkpt lat="45.04634" lon="4.45908">
        <ele>988.5</ele>
      </trkpt>
      <trkpt lat="45.04634" lon="4.45899">
        <ele>988.8</ele>
      </trkpt>
      <trkpt lat="45.04635" lon="4.4589">
        <ele>989.1</ele>
      </trkpt>
      <trkpt lat="45.04635" lon="4.45878">
        <ele>989.7</ele>
      </trkpt>
      <trkpt lat="45.04636" lon="4.45864">
        <ele>990.4</ele>
      </trkpt>
      <trkpt lat="45.04637" lon="4.45845">
        <ele>991.2</ele>
      </trkpt>
      <trkpt lat="45.04638" lon="4.45827">
        <ele>992.2</ele>
      </trkpt>
      <trkpt lat="45.04638" lon="4.45813">
        <ele>993.1</ele>
      </trkpt>
      <trkpt lat="45.04635" lon="4.45807">
        <ele>992.8</ele>
      </trkpt>
      <trkpt lat="45.04627" lon="4.45799">
        <ele>991.8</ele>
      </trkpt>
      <trkpt lat="45.0462" lon="4.45784">
        <ele>991.2</ele>
      </trkpt>
      <trkpt lat="45.04615" lon="4.45772">
        <ele>990.7</ele>
      </trkpt>
      <trkpt lat="45.0461" lon="4.45764">
        <ele>990</ele>
      </trkpt>
      <trkpt lat="45.04599" lon="4.45752">
        <ele>988.3</ele>
      </trkpt>
      <trkpt lat="45.04589" lon="4.4574">
        <ele>987.2</ele>
      </trkpt>
      <trkpt lat="45.04585" lon="4.45732">
        <ele>987.1</ele>
      </trkpt>
      <trkpt lat="45.0458" lon="4.45722">
        <ele>986.3</ele>
      </trkpt>
      <trkpt lat="45.04576" lon="4.45714">
        <ele>985</ele>
      </trkpt>
      <trkpt lat="45.04573" lon="4.45702">
        <ele>984.5</ele>
      </trkpt>
      <trkpt lat="45.04573" lon="4.45689">
        <ele>985.7</ele>
      </trkpt>
      <trkpt lat="45.04573" lon="4.45684">
        <ele>986.1</ele>
      </trkpt>
      <trkpt lat="45.04573" lon="4.45678">
        <ele>986.7</ele>
      </trkpt>
      <trkpt lat="45.04572" lon="4.45667">
        <ele>987.1</ele>
      </trkpt>
      <trkpt lat="45.04567" lon="4.45658">
        <ele>986.5</ele>
      </trkpt>
      <trkpt lat="45.04561" lon="4.45644">
        <ele>986.1</ele>
      </trkpt>
      <trkpt lat="45.04552" lon="4.45633">
        <ele>983.7</ele>
      </trkpt>
      <trkpt lat="45.04533" lon="4.45621">
        <ele>977.7</ele>
      </trkpt>
      <trkpt lat="45.04523" lon="4.45616">
        <ele>974.2</ele>
      </trkpt>
      <trkpt lat="45.04519" lon="4.45611">
        <ele>973.6</ele>
      </trkpt>
      <trkpt lat="45.04517" lon="4.45605">
        <ele>974</ele>
      </trkpt>
      <trkpt lat="45.04513" lon="4.45596">
        <ele>974.3</ele>
      </trkpt>
      <trkpt lat="45.04503" lon="4.45584">
        <ele>973.1</ele>
      </trkpt>
      <trkpt lat="45.04492" lon="4.45572">
        <ele>971.6</ele>
      </trkpt>
      <trkpt lat="45.0448" lon="4.45558">
        <ele>970.8</ele>
      </trkpt>
      <trkpt lat="45.04463" lon="4.45547">
        <ele>967</ele>
      </trkpt>
      <trkpt lat="45.04447" lon="4.45539">
        <ele>962.7</ele>
      </trkpt>
      <trkpt lat="45.04439" lon="4.45534">
        <ele>961.1</ele>
      </trkpt>
      <trkpt lat="45.04434" lon="4.45536">
        <ele>958.5</ele>
      </trkpt>
      <trkpt lat="45.04423" lon="4.45531">
        <ele>955.7</ele>
      </trkpt>
      <trkpt lat="45.04395" lon="4.45517">
        <ele>947.8</ele>
      </trkpt>
      <trkpt lat="45.04384" lon="4.45483">
        <ele>951.6</ele>
      </trkpt>
      <trkpt lat="45.04367" lon="4.45452">
        <ele>953.3</ele>
      </trkpt>
      <trkpt lat="45.0435" lon="4.45431">
        <ele>953.1</ele>
      </trkpt>
      <trkpt lat="45.04341" lon="4.45417">
        <ele>954.4</ele>
      </trkpt>
      <trkpt lat="45.04336" lon="4.45411">
        <ele>954.4</ele>
      </trkpt>
      <trkpt lat="45.04329" lon="4.45403">
        <ele>956</ele>
      </trkpt>
      <trkpt lat="45.04325" lon="4.45414">
        <ele>952.8</ele>
      </trkpt>
      <trkpt lat="45.04318" lon="4.45425">
        <ele>949</ele>
      </trkpt>
      <trkpt lat="45.04294" lon="4.45452">
        <ele>939.1</ele>
      </trkpt>
      <trkpt lat="45.04279" lon="4.45469">
        <ele>932.3</ele>
      </trkpt>
      <trkpt lat="45.04267" lon="4.45487">
        <ele>924.9</ele>
      </trkpt>
      <trkpt lat="45.04262" lon="4.45492">
        <ele>922.6</ele>
      </trkpt>
      <trkpt lat="45.04253" lon="4.45496">
        <ele>920.7</ele>
      </trkpt>
      <trkpt lat="45.04235" lon="4.45499">
        <ele>916.9</ele>
      </trkpt>
      <trkpt lat="45.04218" lon="4.45498">
        <ele>914.7</ele>
      </trkpt>
      <trkpt lat="45.04207" lon="4.45497">
        <ele>913.5</ele>
      </trkpt>
      <trkpt lat="45.04202" lon="4.45495">
        <ele>913.2</ele>
      </trkpt>
      <trkpt lat="45.04193" lon="4.45487">
        <ele>914.4</ele>
      </trkpt>
      <trkpt lat="45.04188" lon="4.45479">
        <ele>916</ele>
      </trkpt>
      <trkpt lat="45.04185" lon="4.45472">
        <ele>917.8</ele>
      </trkpt>
      <trkpt lat="45.04162" lon="4.45441">
        <ele>922.9</ele>
      </trkpt>
      <trkpt lat="45.04157" lon="4.45434">
        <ele>923.9</ele>
      </trkpt>
      <trkpt lat="45.04147" lon="4.45431">
        <ele>923.1</ele>
      </trkpt>
      <trkpt lat="45.04135" lon="4.4543">
        <ele>920.9</ele>
      </trkpt>
      <trkpt lat="45.04112" lon="4.45441">
        <ele>913.8</ele>
      </trkpt>
      <trkpt lat="45.04079" lon="4.45445">
        <ele>906.9</ele>
      </trkpt>
      <trkpt lat="45.04054" lon="4.45433">
        <ele>907.1</ele>
      </trkpt>
      <trkpt lat="45.04045" lon="4.45415">
        <ele>910.4</ele>
      </trkpt>
      <trkpt lat="45.04015" lon="4.45322">
        <ele>918.8</ele>
      </trkpt>
      <trkpt lat="45.04006" lon="4.45314">
        <ele>917.4</ele>
      </trkpt>
      <trkpt lat="45.04001" lon="4.45316">
        <ele>915.7</ele>
      </trkpt>
      <trkpt lat="45.03998" lon="4.4533">
        <ele>914.1</ele>
      </trkpt>
      <trkpt lat="45.03997" lon="4.45354">
        <ele>911.9</ele>
      </trkpt>
      <trkpt lat="45.03991" lon="4.4537">
        <ele>912.1</ele>
      </trkpt>
      <trkpt lat="45.0398" lon="4.45397">
        <ele>913.2</ele>
      </trkpt>
      <trkpt lat="45.03955" lon="4.45436">
        <ele>915.5</ele>
      </trkpt>
      <trkpt lat="45.03931" lon="4.45481">
        <ele>913.6</ele>
      </trkpt>
      <trkpt lat="45.03924" lon="4.45503">
        <ele>911</ele>
      </trkpt>
      <trkpt lat="45.03913" lon="4.45567">
        <ele>904</ele>
      </trkpt>
      <trkpt lat="45.03907" lon="4.45591">
        <ele>903.3</ele>
      </trkpt>
      <trkpt lat="45.03898" lon="4.4561">
        <ele>906.4</ele>
      </trkpt>
      <trkpt lat="45.03891" lon="4.45624">
        <ele>908.9</ele>
      </trkpt>
      <trkpt lat="45.0388" lon="4.4564">
        <ele>912.9</ele>
      </trkpt>
      <trkpt lat="45.03874" lon="4.45646">
        <ele>915.3</ele>
      </trkpt>
      <trkpt lat="45.03873" lon="4.4565">
        <ele>915</ele>
      </trkpt>
      <trkpt lat="45.03878" lon="4.45651">
        <ele>912.9</ele>
      </trkpt>
      <trkpt lat="45.03892" lon="4.45657">
        <ele>906.4</ele>
        <extensions>
          <visugpx:TrkExtension xmlns:visugpx="https://www.visugpx.com/editgpx/">
            <visugpx:node>8</visugpx:node>
            </visugpx:TrkExtension>
        </extensions>
      </trkpt>
      <trkpt lat="45.03892" lon="4.45657">
        <ele>906.4</ele>
      </trkpt>
      <trkpt lat="45.03898" lon="4.4566">
        <ele>903.5</ele>
      </trkpt>
      <trkpt lat="45.03913" lon="4.45683">
        <ele>899.9</ele>
      </trkpt>
      <trkpt lat="45.03928" lon="4.45722">
        <ele>901.4</ele>
      </trkpt>
      <trkpt lat="45.03938" lon="4.45739">
        <ele>900.3</ele>
      </trkpt>
      <trkpt lat="45.03947" lon="4.4576">
        <ele>899.9</ele>
      </trkpt>
      <trkpt lat="45.03954" lon="4.45774">
        <ele>899.3</ele>
      </trkpt>
      <trkpt lat="45.03961" lon="4.45793">
        <ele>898.5</ele>
      </trkpt>
      <trkpt lat="45.03966" lon="4.45805">
        <ele>898</ele>
      </trkpt>
      <trkpt lat="45.03971" lon="4.45819">
        <ele>898</ele>
      </trkpt>
      <trkpt lat="45.03974" lon="4.45835">
        <ele>899</ele>
      </trkpt>
      <trkpt lat="45.03974" lon="4.45851">
        <ele>899.1</ele>
      </trkpt>
      <trkpt lat="45.03974" lon="4.45865">
        <ele>899.7</ele>
      </trkpt>
      <trkpt lat="45.03972" lon="4.45879">
        <ele>900.5</ele>
      </trkpt>
      <trkpt lat="45.03968" lon="4.45896">
        <ele>902.9</ele>
      </trkpt>
      <trkpt lat="45.03955" lon="4.45917">
        <ele>908.1</ele>
      </trkpt>
      <trkpt lat="45.03943" lon="4.4593">
        <ele>911</ele>
      </trkpt>
      <trkpt lat="45.0393" lon="4.45939">
        <ele>914.2</ele>
      </trkpt>
      <trkpt lat="45.03912" lon="4.45957">
        <ele>917</ele>
      </trkpt>
      <trkpt lat="45.0389" lon="4.45973">
        <ele>918.8</ele>
      </trkpt>
      <trkpt lat="45.03871" lon="4.4599">
        <ele>919.3</ele>
      </trkpt>
      <trkpt lat="45.03861" lon="4.46001">
        <ele>918.8</ele>
      </trkpt>
      <trkpt lat="45.03849" lon="4.46009">
        <ele>918.9</ele>
      </trkpt>
      <trkpt lat="45.03841" lon="4.46012">
        <ele>919.7</ele>
      </trkpt>
      <trkpt lat="45.03831" lon="4.46016">
        <ele>921.1</ele>
      </trkpt>
      <trkpt lat="45.03822" lon="4.46023">
        <ele>922.5</ele>
      </trkpt>
      <trkpt lat="45.03806" lon="4.46045">
        <ele>922.3</ele>
      </trkpt>
      <trkpt lat="45.03792" lon="4.46071">
        <ele>921</ele>
      </trkpt>
      <trkpt lat="45.03783" lon="4.46085">
        <ele>921.2</ele>
      </trkpt>
      <trkpt lat="45.03776" lon="4.46098">
        <ele>921.7</ele>
      </trkpt>
      <trkpt lat="45.03769" lon="4.4611">
        <ele>922.2</ele>
      </trkpt>
      <trkpt lat="45.03753" lon="4.46133">
        <ele>924.6</ele>
      </trkpt>
      <trkpt lat="45.03749" lon="4.4614">
        <ele>925.3</ele>
      </trkpt>
      <trkpt lat="45.03737" lon="4.46156">
        <ele>927.3</ele>
      </trkpt>
      <trkpt lat="45.03726" lon="4.46175">
        <ele>928.4</ele>
      </trkpt>
      <trkpt lat="45.03718" lon="4.46193">
        <ele>928.1</ele>
      </trkpt>
      <trkpt lat="45.0371" lon="4.46208">
        <ele>928</ele>
      </trkpt>
      <trkpt lat="45.03701" lon="4.46226">
        <ele>927.8</ele>
      </trkpt>
      <trkpt lat="45.03694" lon="4.46236">
        <ele>928.1</ele>
      </trkpt>
      <trkpt lat="45.03687" lon="4.46244">
        <ele>929.1</ele>
      </trkpt>
      <trkpt lat="45.03675" lon="4.46254">
        <ele>931.3</ele>
      </trkpt>
      <trkpt lat="45.03662" lon="4.46264">
        <ele>933.2</ele>
      </trkpt>
      <trkpt lat="45.03647" lon="4.46278">
        <ele>934.8</ele>
      </trkpt>
      <trkpt lat="45.03638" lon="4.46287">
        <ele>936</ele>
      </trkpt>
      <trkpt lat="45.03634" lon="4.46293">
        <ele>935.9</ele>
      </trkpt>
      <trkpt lat="45.03631" lon="4.46302">
        <ele>935.4</ele>
      </trkpt>
      <trkpt lat="45.03623" lon="4.46315">
        <ele>935.1</ele>
      </trkpt>
      <trkpt lat="45.0361" lon="4.4634">
        <ele>935.2</ele>
      </trkpt>
      <trkpt lat="45.03597" lon="4.46368">
        <ele>936.7</ele>
      </trkpt>
      <trkpt lat="45.03581" lon="4.46405">
        <ele>937.2</ele>
      </trkpt>
      <trkpt lat="45.03568" lon="4.4643">
        <ele>932.6</ele>
      </trkpt>
      <trkpt lat="45.03562" lon="4.46437">
        <ele>930.8</ele>
      </trkpt>
      <trkpt lat="45.03558" lon="4.46439">
        <ele>930.1</ele>
      </trkpt>
      <trkpt lat="45.03553" lon="4.46437">
        <ele>930</ele>
      </trkpt>
      <trkpt lat="45.03548" lon="4.46433">
        <ele>930.6</ele>
        <extensions>
          <visugpx:TrkExtension xmlns:visugpx="https://www.visugpx.com/editgpx/">
            <visugpx:node>9</visugpx:node>
            </visugpx:TrkExtension>
        </extensions>
      </trkpt>
      <trkpt lat="45.03538" lon="4.46429">
        <ele>930.5</ele>
      </trkpt>
      <trkpt lat="45.03518" lon="4.46406">
        <ele>934</ele>
      </trkpt>
      <trkpt lat="45.03482" lon="4.46347">
        <ele>940.1</ele>
      </trkpt>
      <trkpt lat="45.03438" lon="4.4629">
        <ele>943.3</ele>
      </trkpt>
      <trkpt lat="45.03417" lon="4.46269">
        <ele>944.5</ele>
      </trkpt>
      <trkpt lat="45.03353" lon="4.46233">
        <ele>938.6</ele>
      </trkpt>
      <trkpt lat="45.03341" lon="4.46219">
        <ele>939.2</ele>
      </trkpt>
      <trkpt lat="45.03332" lon="4.4621">
        <ele>939</ele>
      </trkpt>
      <trkpt lat="45.03316" lon="4.46197">
        <ele>939.8</ele>
      </trkpt>
      <trkpt lat="45.0331" lon="4.46192">
        <ele>939.8</ele>
        <extensions>
          <visugpx:TrkExtension xmlns:visugpx="https://www.visugpx.com/editgpx/">
            <visugpx:node>10</visugpx:node>
            </visugpx:TrkExtension>
        </extensions>
      </trkpt>
      <trkpt lat="45.033" lon="4.46184">
        <ele>939.5</ele>
      </trkpt>
      <trkpt lat="45.0329" lon="4.46197">
        <ele>936.3</ele>
      </trkpt>
      <trkpt lat="45.03282" lon="4.46208">
        <ele>934</ele>
      </trkpt>
      <trkpt lat="45.0327" lon="4.46221">
        <ele>931.6</ele>
      </trkpt>
      <trkpt lat="45.03259" lon="4.46237">
        <ele>929.8</ele>
      </trkpt>
      <trkpt lat="45.0325" lon="4.46246">
        <ele>929</ele>
      </trkpt>
      <trkpt lat="45.03238" lon="4.46255">
        <ele>925.4</ele>
      </trkpt>
      <trkpt lat="45.03231" lon="4.46269">
        <ele>921.4</ele>
      </trkpt>
      <trkpt lat="45.03221" lon="4.46281">
        <ele>918.1</ele>
      </trkpt>
      <trkpt lat="45.03207" lon="4.46293">
        <ele>915.3</ele>
      </trkpt>
      <trkpt lat="45.03193" lon="4.46311">
        <ele>913.1</ele>
      </trkpt>
      <trkpt lat="45.03186" lon="4.46336">
        <ele>911.8</ele>
      </trkpt>
      <trkpt lat="45.03179" lon="4.46367">
        <ele>909.7</ele>
      </trkpt>
      <trkpt lat="45.03167" lon="4.4642">
        <ele>908.2</ele>
      </trkpt>
      <trkpt lat="45.03164" lon="4.46452">
        <ele>901.5</ele>
      </trkpt>
      <trkpt lat="45.03157" lon="4.46485">
        <ele>894.3</ele>
      </trkpt>
      <trkpt lat="45.0315" lon="4.46521">
        <ele>886.2</ele>
      </trkpt>
      <trkpt lat="45.03152" lon="4.46537">
        <ele>882.5</ele>
      </trkpt>
      <trkpt lat="45.03124" lon="4.46561">
        <ele>875.9</ele>
      </trkpt>
      <trkpt lat="45.03102" lon="4.46567">
        <ele>873.8</ele>
      </trkpt>
      <trkpt lat="45.03114" lon="4.46585">
        <ele>870.6</ele>
      </trkpt>
      <trkpt lat="45.03141" lon="4.46595">
        <ele>869.5</ele>
      </trkpt>
      <trkpt lat="45.0316" lon="4.46602">
        <ele>868.3</ele>
      </trkpt>
      <trkpt lat="45.03178" lon="4.46611">
        <ele>863.9</ele>
      </trkpt>
      <trkpt lat="45.03175" lon="4.4662">
        <ele>862.9</ele>
      </trkpt>
      <trkpt lat="45.03162" lon="4.46637">
        <ele>861.9</ele>
      </trkpt>
      <trkpt lat="45.03143" lon="4.46658">
        <ele>858.9</ele>
      </trkpt>
      <trkpt lat="45.03135" lon="4.46677">
        <ele>856</ele>
      </trkpt>
      <trkpt lat="45.03134" lon="4.4668">
        <ele>855.4</ele>
        <extensions>
          <visugpx:TrkExtension xmlns:visugpx="https://www.visugpx.com/editgpx/">
            <visugpx:node>11</visugpx:node>
            </visugpx:TrkExtension>
        </extensions>
      </trkpt>
      <trkpt lat="45.03127" lon="4.46728">
        <ele>847.2</ele>
      </trkpt>
      <trkpt lat="45.03121" lon="4.46749">
        <ele>844.3</ele>
      </trkpt>
      <trkpt lat="45.03106" lon="4.46789">
        <ele>837.1</ele>
      </trkpt>
      <trkpt lat="45.03099" lon="4.46831">
        <ele>828.1</ele>
      </trkpt>
      <trkpt lat="45.031" lon="4.46849">
        <ele>824.4</ele>
      </trkpt>
      <trkpt lat="45.03102" lon="4.46883">
        <ele>817.9</ele>
      </trkpt>
      <trkpt lat="45.03101" lon="4.46906">
        <ele>813.9</ele>
      </trkpt>
      <trkpt lat="45.03092" lon="4.46929">
        <ele>812.2</ele>
      </trkpt>
      <trkpt lat="45.03088" lon="4.46938">
        <ele>812.1</ele>
      </trkpt>
      <trkpt lat="45.03081" lon="4.46941">
        <ele>812.1</ele>
      </trkpt>
      <trkpt lat="45.03075" lon="4.46943">
        <ele>810.3</ele>
      </trkpt>
      <trkpt lat="45.03067" lon="4.4695">
        <ele>807.3</ele>
      </trkpt>
      <trkpt lat="45.03059" lon="4.46972">
        <ele>802.8</ele>
      </trkpt>
      <trkpt lat="45.03051" lon="4.47008">
        <ele>796.1</ele>
      </trkpt>
      <trkpt lat="45.0305" lon="4.4703">
        <ele>793</ele>
      </trkpt>
      <trkpt lat="45.03044" lon="4.47065">
        <ele>787.2</ele>
      </trkpt>
      <trkpt lat="45.03041" lon="4.47084">
        <ele>784.3</ele>
      </trkpt>
      <trkpt lat="45.03035" lon="4.47107">
        <ele>780.1</ele>
      </trkpt>
      <trkpt lat="45.03034" lon="4.47127">
        <ele>778</ele>
      </trkpt>
      <trkpt lat="45.03036" lon="4.4715">
        <ele>776.1</ele>
      </trkpt>
      <trkpt lat="45.03044" lon="4.47182">
        <ele>774.5</ele>
      </trkpt>
      <trkpt lat="45.03059" lon="4.47231">
        <ele>771.3</ele>
      </trkpt>
      <trkpt lat="45.03067" lon="4.47268">
        <ele>768.3</ele>
      </trkpt>
      <trkpt lat="45.03067" lon="4.47291">
        <ele>765.5</ele>
      </trkpt>
      <trkpt lat="45.03064" lon="4.47329">
        <ele>760.3</ele>
      </trkpt>
      <trkpt lat="45.03061" lon="4.47348">
        <ele>757.9</ele>
      </trkpt>
      <trkpt lat="45.03061" lon="4.47366">
        <ele>756.2</ele>
      </trkpt>
      <trkpt lat="45.03062" lon="4.47377">
        <ele>755.3</ele>
      </trkpt>
      <trkpt lat="45.03065" lon="4.47384">
        <ele>755.2</ele>
      </trkpt>
      <trkpt lat="45.03069" lon="4.47388">
        <ele>755.4</ele>
      </trkpt>
      <trkpt lat="45.03074" lon="4.47393">
        <ele>755.7</ele>
      </trkpt>
      <trkpt lat="45.03082" lon="4.47427">
        <ele>753.4</ele>
      </trkpt>
      <trkpt lat="45.03091" lon="4.47475">
        <ele>744.7</ele>
      </trkpt>
      <trkpt lat="45.03096" lon="4.47506">
        <ele>739.4</ele>
      </trkpt>
      <trkpt lat="45.03093" lon="4.47533">
        <ele>737.3</ele>
      </trkpt>
      <trkpt lat="45.03089" lon="4.4757">
        <ele>734.4</ele>
      </trkpt>
      <trkpt lat="45.03088" lon="4.47614">
        <ele>731.1</ele>
      </trkpt>
      <trkpt lat="45.03087" lon="4.47645">
        <ele>729</ele>
      </trkpt>
      <trkpt lat="45.03082" lon="4.47679">
        <ele>726.9</ele>
      </trkpt>
      <trkpt lat="45.03077" lon="4.47706">
        <ele>724.3</ele>
      </trkpt>
      <trkpt lat="45.0308" lon="4.47728">
        <ele>723.9</ele>
      </trkpt>
      <trkpt lat="45.03086" lon="4.4775">
        <ele>723.7</ele>
      </trkpt>
      <trkpt lat="45.03088" lon="4.47762">
        <ele>723</ele>
      </trkpt>
      <trkpt lat="45.03085" lon="4.47804">
        <ele>721.2</ele>
      </trkpt>
      <trkpt lat="45.03086" lon="4.47824">
        <ele>720.2</ele>
      </trkpt>
      <trkpt lat="45.03087" lon="4.47832">
        <ele>719.8</ele>
      </trkpt>
      <trkpt lat="45.03086" lon="4.47838">
        <ele>719.3</ele>
      </trkpt>
      <trkpt lat="45.03082" lon="4.47849">
        <ele>717.7</ele>
      </trkpt>
      <trkpt lat="45.03075" lon="4.47878">
        <ele>712.2</ele>
      </trkpt>
      <trkpt lat="45.03072" lon="4.47914">
        <ele>707.6</ele>
      </trkpt>
      <trkpt lat="45.03069" lon="4.4795">
        <ele>702.2</ele>
      </trkpt>
      <trkpt lat="45.03066" lon="4.47982">
        <ele>697.4</ele>
      </trkpt>
      <trkpt lat="45.03063" lon="4.48021">
        <ele>691.3</ele>
      </trkpt>
      <trkpt lat="45.03055" lon="4.4806">
        <ele>683.8</ele>
      </trkpt>
      <trkpt lat="45.03045" lon="4.481">
        <ele>675.9</ele>
      </trkpt>
      <trkpt lat="45.03039" lon="4.48128">
        <ele>671.3</ele>
      </trkpt>
      <trkpt lat="45.03028" lon="4.48163">
        <ele>665.7</ele>
      </trkpt>
      <trkpt lat="45.03024" lon="4.48175">
        <ele>663.5</ele>
      </trkpt>
      <trkpt lat="45.0301" lon="4.48203">
        <ele>658.3</ele>
      </trkpt>
      <trkpt lat="45.02999" lon="4.48225">
        <ele>654.9</ele>
      </trkpt>
      <trkpt lat="45.02987" lon="4.48239">
        <ele>651.3</ele>
      </trkpt>
      <trkpt lat="45.02968" lon="4.48251">
        <ele>647.6</ele>
      </trkpt>
      <trkpt lat="45.02966" lon="4.48254">
        <ele>647.1</ele>
        <extensions>
          <visugpx:TrkExtension xmlns:visugpx="https://www.visugpx.com/editgpx/">
            <visugpx:node>12</visugpx:node>
            </visugpx:TrkExtension>
        </extensions>
      </trkpt>
      <trkpt lat="45.02965" lon="4.48256">
        <ele>646.8</ele>
      </trkpt>
      <trkpt lat="45.02943" lon="4.48285">
        <ele>643.1</ele>
      </trkpt>
      <trkpt lat="45.02911" lon="4.48322">
        <ele>641.8</ele>
      </trkpt>
      <trkpt lat="45.02904" lon="4.48328">
        <ele>641.1</ele>
      </trkpt>
      <trkpt lat="45.02903" lon="4.48337">
        <ele>641.3</ele>
      </trkpt>
      <trkpt lat="45.02903" lon="4.48346">
        <ele>641.2</ele>
      </trkpt>
      <trkpt lat="45.02905" lon="4.48364">
        <ele>641.1</ele>
      </trkpt>
      <trkpt lat="45.02911" lon="4.4839">
        <ele>641.2</ele>
      </trkpt>
      <trkpt lat="45.02915" lon="4.48409">
        <ele>641.1</ele>
      </trkpt>
      <trkpt lat="45.02917" lon="4.48418">
        <ele>640.9</ele>
      </trkpt>
      <trkpt lat="45.02922" lon="4.48449">
        <ele>638.9</ele>
      </trkpt>
      <trkpt lat="45.02915" lon="4.48469">
        <ele>639.1</ele>
      </trkpt>
      <trkpt lat="45.02906" lon="4.48486">
        <ele>638.3</ele>
      </trkpt>
      <trkpt lat="45.02899" lon="4.48492">
        <ele>638</ele>
      </trkpt>
      <trkpt lat="45.02889" lon="4.48492">
        <ele>637.8</ele>
      </trkpt>
      <trkpt lat="45.02875" lon="4.48493">
        <ele>637.6</ele>
      </trkpt>
      <trkpt lat="45.02868" lon="4.48495">
        <ele>637.5</ele>
      </trkpt>
      <trkpt lat="45.02864" lon="4.48498">
        <ele>637.4</ele>
      </trkpt>
      <trkpt lat="45.02857" lon="4.48506">
        <ele>637.6</ele>
      </trkpt>
      <trkpt lat="45.02852" lon="4.48513">
        <ele>637.8</ele>
      </trkpt>
      <trkpt lat="45.02844" lon="4.48521">
        <ele>638.3</ele>
      </trkpt>
      <trkpt lat="45.02829" lon="4.48552">
        <ele>638.7</ele>
      </trkpt>
      <trkpt lat="45.02814" lon="4.48591">
        <ele>637.9</ele>
      </trkpt>
      <trkpt lat="45.02808" lon="4.48609">
        <ele>638.3</ele>
      </trkpt>
      <trkpt lat="45.02804" lon="4.4862">
        <ele>638.7</ele>
      </trkpt>
      <trkpt lat="45.02799" lon="4.4863">
        <ele>638.7</ele>
      </trkpt>
      <trkpt lat="45.02795" lon="4.48635">
        <ele>638.2</ele>
      </trkpt>
      <trkpt lat="45.02786" lon="4.48639">
        <ele>636.6</ele>
      </trkpt>
      <trkpt lat="45.02778" lon="4.48641">
        <ele>634.9</ele>
      </trkpt>
      <trkpt lat="45.02769" lon="4.48643">
        <ele>633</ele>
      </trkpt>
      <trkpt lat="45.02762" lon="4.48644">
        <ele>631.4</ele>
      </trkpt>
      <trkpt lat="45.02757" lon="4.48645">
        <ele>630.6</ele>
      </trkpt>
      <trkpt lat="45.02751" lon="4.48648">
        <ele>629.7</ele>
      </trkpt>
      <trkpt lat="45.02746" lon="4.48655">
        <ele>628.7</ele>
      </trkpt>
      <trkpt lat="45.02734" lon="4.48678">
        <ele>626.9</ele>
      </trkpt>
      <trkpt lat="45.0272" lon="4.48696">
        <ele>624</ele>
      </trkpt>
      <trkpt lat="45.02709" lon="4.48715">
        <ele>622.3</ele>
      </trkpt>
      <trkpt lat="45.02695" lon="4.48738">
        <ele>620.2</ele>
      </trkpt>
      <trkpt lat="45.02691" lon="4.48747">
        <ele>620.1</ele>
      </trkpt>
      <trkpt lat="45.0269" lon="4.48753">
        <ele>620.2</ele>
      </trkpt>
      <trkpt lat="45.02689" lon="4.48758">
        <ele>620.3</ele>
      </trkpt>
      <trkpt lat="45.02692" lon="4.48771">
        <ele>621.9</ele>
      </trkpt>
      <trkpt lat="45.02693" lon="4.48777">
        <ele>622.5</ele>
      </trkpt>
      <trkpt lat="45.02694" lon="4.48781">
        <ele>623.2</ele>
      </trkpt>
      <trkpt lat="45.02694" lon="4.48786">
        <ele>623.7</ele>
      </trkpt>
      <trkpt lat="45.02697" lon="4.48795">
        <ele>625</ele>
      </trkpt>
      <trkpt lat="45.02696" lon="4.48799">
        <ele>625</ele>
      </trkpt>
      <trkpt lat="45.02695" lon="4.48802">
        <ele>624.6</ele>
      </trkpt>
      <trkpt lat="45.02683" lon="4.48808">
        <ele>620.9</ele>
      </trkpt>
      <trkpt lat="45.02676" lon="4.48814">
        <ele>618.3</ele>
      </trkpt>
      <trkpt lat="45.02669" lon="4.48821">
        <ele>616.4</ele>
      </trkpt>
      <trkpt lat="45.02664" lon="4.48829">
        <ele>614.8</ele>
      </trkpt>
      <trkpt lat="45.02662" lon="4.4883">
        <ele>613.8</ele>
      </trkpt>
      <trkpt lat="45.0266" lon="4.48833">
        <ele>613.4</ele>
      </trkpt>
      <trkpt lat="45.0266" lon="4.48835">
        <ele>613.6</ele>
      </trkpt>
      <trkpt lat="45.02659" lon="4.48835">
        <ele>613.3</ele>
      </trkpt>
      <trkpt lat="45.02661" lon="4.48827">
        <ele>613.3</ele>
      </trkpt>
      <trkpt lat="45.02662" lon="4.48823">
        <ele>613.7</ele>
      </trkpt>
      <trkpt lat="45.02663" lon="4.48818">
        <ele>613.8</ele>
      </trkpt>
      <trkpt lat="45.02666" lon="4.48809">
        <ele>614.6</ele>
      </trkpt>
      <trkpt lat="45.02665" lon="4.48804">
        <ele>613.9</ele>
      </trkpt>
      <trkpt lat="45.02662" lon="4.48801">
        <ele>612.6</ele>
      </trkpt>
      <trkpt lat="45.02646" lon="4.48794">
        <ele>606.1</ele>
      </trkpt>
      <trkpt lat="45.02634" lon="4.48786">
        <ele>600.7</ele>
      </trkpt>
      <trkpt lat="45.02631" lon="4.48784">
        <ele>599.3</ele>
      </trkpt>
      <trkpt lat="45.02628" lon="4.48779">
        <ele>598</ele>
      </trkpt>
      <trkpt lat="45.02626" lon="4.48774">
        <ele>596.9</ele>
      </trkpt>
      <trkpt lat="45.02625" lon="4.48769">
        <ele>596.3</ele>
      </trkpt>
      <trkpt lat="45.02624" lon="4.48762">
        <ele>595.8</ele>
      </trkpt>
      <trkpt lat="45.02626" lon="4.4875">
        <ele>595.7</ele>
      </trkpt>
      <trkpt lat="45.02628" lon="4.48738">
        <ele>595.6</ele>
      </trkpt>
      <trkpt lat="45.02631" lon="4.48734">
        <ele>595.8</ele>
      </trkpt>
      <trkpt lat="45.02631" lon="4.48728">
        <ele>595.4</ele>
      </trkpt>
      <trkpt lat="45.02631" lon="4.48725">
        <ele>594.9</ele>
      </trkpt>
      <trkpt lat="45.0263" lon="4.48724">
        <ele>594.6</ele>
      </trkpt>
      <trkpt lat="45.02626" lon="4.48728">
        <ele>593.4</ele>
      </trkpt>
      <trkpt lat="45.02611" lon="4.48745">
        <ele>589.5</ele>
      </trkpt>
      <trkpt lat="45.02609" lon="4.4875">
        <ele>589</ele>
      </trkpt>
      <trkpt lat="45.02605" lon="4.48764">
        <ele>588.3</ele>
      </trkpt>
      <trkpt lat="45.02605" lon="4.48769">
        <ele>588.3</ele>
      </trkpt>
      <trkpt lat="45.02603" lon="4.48774">
        <ele>588</ele>
      </trkpt>
      <trkpt lat="45.02601" lon="4.48778">
        <ele>587.2</ele>
      </trkpt>
      <trkpt lat="45.02599" lon="4.48778">
        <ele>586.4</ele>
      </trkpt>
      <trkpt lat="45.026" lon="4.48761">
        <ele>586</ele>
        <extensions>
          <visugpx:TrkExtension xmlns:visugpx="https://www.visugpx.com/editgpx/">
            <visugpx:node>13</visugpx:node>
            </visugpx:TrkExtension>
        </extensions>
      </trkpt>
      <trkpt lat="45.02602" lon="4.48732">
        <ele>584.9</ele>
      </trkpt>
      <trkpt lat="45.02615" lon="4.48683">
        <ele>584.7</ele>
      </trkpt>
      <trkpt lat="45.02627" lon="4.48632">
        <ele>583.7</ele>
      </trkpt>
      <trkpt lat="45.02633" lon="4.48591">
        <ele>581.2</ele>
      </trkpt>
      <trkpt lat="45.02634" lon="4.48531">
        <ele>579.6</ele>
      </trkpt>
      <trkpt lat="45.02634" lon="4.48499">
        <ele>579.1</ele>
      </trkpt>
      <trkpt lat="45.02631" lon="4.48491">
        <ele>580.5</ele>
      </trkpt>
      <trkpt lat="45.02625" lon="4.48486">
        <ele>581.5</ele>
      </trkpt>
      <trkpt lat="45.02622" lon="4.48485">
        <ele>581.8</ele>
      </trkpt>
      <trkpt lat="45.02612" lon="4.48487">
        <ele>581.8</ele>
      </trkpt>
      <trkpt lat="45.02594" lon="4.48497">
        <ele>579.8</ele>
      </trkpt>
      <trkpt lat="45.0258" lon="4.4851">
        <ele>579.2</ele>
      </trkpt>
      <trkpt lat="45.02573" lon="4.48519">
        <ele>580.5</ele>
      </trkpt>
      <trkpt lat="45.02564" lon="4.48536">
        <ele>580.9</ele>
      </trkpt>
      <trkpt lat="45.02561" lon="4.48548">
        <ele>580</ele>
      </trkpt>
      <trkpt lat="45.0255" lon="4.48574">
        <ele>578.4</ele>
      </trkpt>
      <trkpt lat="45.02534" lon="4.48602">
        <ele>578</ele>
      </trkpt>
      <trkpt lat="45.02505" lon="4.48638">
        <ele>574.6</ele>
      </trkpt>
      <trkpt lat="45.02485" lon="4.48662">
        <ele>571.6</ele>
      </trkpt>
      <trkpt lat="45.02478" lon="4.4867">
        <ele>571.2</ele>
      </trkpt>
      <trkpt lat="45.02473" lon="4.48685">
        <ele>569.8</ele>
      </trkpt>
      <trkpt lat="45.02462" lon="4.48724">
        <ele>565.4</ele>
      </trkpt>
      <trkpt lat="45.02451" lon="4.48758">
        <ele>562.3</ele>
      </trkpt>
      <trkpt lat="45.02433" lon="4.48796">
        <ele>560.2</ele>
      </trkpt>
      <trkpt lat="45.02417" lon="4.48824">
        <ele>557.3</ele>
      </trkpt>
      <trkpt lat="45.02403" lon="4.4886">
        <ele>553.1</ele>
      </trkpt>
      <trkpt lat="45.024" lon="4.48868">
        <ele>552.2</ele>
      </trkpt>
      <trkpt lat="45.02396" lon="4.48904">
        <ele>548.9</ele>
        <extensions>
          <visugpx:TrkExtension xmlns:visugpx="https://www.visugpx.com/editgpx/">
            <visugpx:node>14</visugpx:node>
            </visugpx:TrkExtension>
        </extensions>
      </trkpt>
      <trkpt lat="45.02395" lon="4.4891">
        <ele>548.4</ele>
      </trkpt>
      <trkpt lat="45.02392" lon="4.48932">
        <ele>547.6</ele>
      </trkpt>
      <trkpt lat="45.02392" lon="4.48938">
        <ele>547.5</ele>
      </trkpt>
      <trkpt lat="45.02392" lon="4.48948">
        <ele>547.3</ele>
      </trkpt>
      <trkpt lat="45.02395" lon="4.48976">
        <ele>546.6</ele>
      </trkpt>
      <trkpt lat="45.02394" lon="4.48993">
        <ele>546.4</ele>
      </trkpt>
      <trkpt lat="45.02391" lon="4.49015">
        <ele>546.4</ele>
      </trkpt>
      <trkpt lat="45.0239" lon="4.49036">
        <ele>546.3</ele>
      </trkpt>
      <trkpt lat="45.02393" lon="4.49071">
        <ele>545.7</ele>
      </trkpt>
      <trkpt lat="45.02404" lon="4.4913">
        <ele>540.5</ele>
      </trkpt>
      <trkpt lat="45.02409" lon="4.49152">
        <ele>538.2</ele>
      </trkpt>
      <trkpt lat="45.02414" lon="4.49183">
        <ele>535.1</ele>
      </trkpt>
      <trkpt lat="45.0242" lon="4.49209">
        <ele>532.7</ele>
      </trkpt>
      <trkpt lat="45.02424" lon="4.49229">
        <ele>530.8</ele>
      </trkpt>
      <trkpt lat="45.02431" lon="4.49243">
        <ele>528.9</ele>
      </trkpt>
      <trkpt lat="45.02437" lon="4.49258">
        <ele>526.7</ele>
      </trkpt>
      <trkpt lat="45.02449" lon="4.49284">
        <ele>522.7</ele>
      </trkpt>
      <trkpt lat="45.02454" lon="4.49293">
        <ele>521.6</ele>
      </trkpt>
      <trkpt lat="45.02458" lon="4.49304">
        <ele>520.6</ele>
      </trkpt>
      <trkpt lat="45.02462" lon="4.49312">
        <ele>520.1</ele>
      </trkpt>
      <trkpt lat="45.02475" lon="4.49328">
        <ele>519.9</ele>
      </trkpt>
      <trkpt lat="45.02487" lon="4.49344">
        <ele>521</ele>
      </trkpt>
      <trkpt lat="45.02493" lon="4.49359">
        <ele>522.2</ele>
      </trkpt>
      <trkpt lat="45.02505" lon="4.49395">
        <ele>524</ele>
      </trkpt>
      <trkpt lat="45.02507" lon="4.49405">
        <ele>524.3</ele>
      </trkpt>
      <trkpt lat="45.02506" lon="4.49415">
        <ele>524.8</ele>
      </trkpt>
      <trkpt lat="45.02502" lon="4.4943">
        <ele>526.3</ele>
      </trkpt>
      <trkpt lat="45.02499" lon="4.49455">
        <ele>527.5</ele>
      </trkpt>
      <trkpt lat="45.02498" lon="4.49479">
        <ele>528.4</ele>
      </trkpt>
      <trkpt lat="45.025" lon="4.49487">
        <ele>529.3</ele>
      </trkpt>
      <trkpt lat="45.02501" lon="4.49493">
        <ele>529.4</ele>
      </trkpt>
      <trkpt lat="45.02504" lon="4.495">
        <ele>528.9</ele>
      </trkpt>
      <trkpt lat="45.02502" lon="4.4951">
        <ele>528.3</ele>
      </trkpt>
      <trkpt lat="45.02501" lon="4.49524">
        <ele>526.6</ele>
      </trkpt>
      <trkpt lat="45.025" lon="4.49538">
        <ele>525</ele>
        <extensions>
          <visugpx:TrkExtension xmlns:visugpx="https://www.visugpx.com/editgpx/">
            <visugpx:node>16</visugpx:node>
            </visugpx:TrkExtension>
        </extensions>
      </trkpt>
      <trkpt lat="45.02499" lon="4.49544">
        <ele>524</ele>
      </trkpt>
      <trkpt lat="45.02505" lon="4.49543">
        <ele>523.4</ele>
      </trkpt>
      <trkpt lat="45.02511" lon="4.49542">
        <ele>522.3</ele>
      </trkpt>
      <trkpt lat="45.0252" lon="4.49537">
        <ele>520.9</ele>
      </trkpt>
      <trkpt lat="45.02526" lon="4.49537">
        <ele>519.6</ele>
      </trkpt>
      <trkpt lat="45.02531" lon="4.49532">
        <ele>519</ele>
      </trkpt>
      <trkpt lat="45.02541" lon="4.49521">
        <ele>518</ele>
      </trkpt>
      <trkpt lat="45.02545" lon="4.49514">
        <ele>517.9</ele>
      </trkpt>
      <trkpt lat="45.02547" lon="4.49506">
        <ele>518.2</ele>
      </trkpt>
      <trkpt lat="45.02549" lon="4.49489">
        <ele>518</ele>
      </trkpt>
      <trkpt lat="45.02553" lon="4.4948">
        <ele>517</ele>
      </trkpt>
      <trkpt lat="45.02554" lon="4.49473">
        <ele>516.6</ele>
      </trkpt>
      <trkpt lat="45.02554" lon="4.49459">
        <ele>516.3</ele>
      </trkpt>
      <trkpt lat="45.02554" lon="4.49415">
        <ele>515.7</ele>
      </trkpt>
      <trkpt lat="45.02554" lon="4.49396">
        <ele>515.6</ele>
      </trkpt>
      <trkpt lat="45.02554" lon="4.49367">
        <ele>515.5</ele>
      </trkpt>
      <trkpt lat="45.02549" lon="4.49337">
        <ele>516.2</ele>
      </trkpt>
      <trkpt lat="45.02557" lon="4.49344">
        <ele>515.2</ele>
        <extensions>
          <visugpx:TrkExtension xmlns:visugpx="https://www.visugpx.com/editgpx/">
            <visugpx:node>17</visugpx:node>
            </visugpx:TrkExtension>
        </extensions>
      </trkpt>
      <trkpt lat="45.02558" lon="4.49346">
        <ele>515</ele>
      </trkpt>
      <trkpt lat="45.02576" lon="4.49366">
        <ele>512.3</ele>
      </trkpt>
      <trkpt lat="45.02588" lon="4.4939">
        <ele>511.3</ele>
      </trkpt>
      <trkpt lat="45.02593" lon="4.49412">
        <ele>510.8</ele>
      </trkpt>
      <trkpt lat="45.02597" lon="4.49431">
        <ele>510.4</ele>
      </trkpt>
      <trkpt lat="45.02604" lon="4.49442">
        <ele>510</ele>
      </trkpt>
      <trkpt lat="45.02623" lon="4.49499">
        <ele>504.3</ele>
      </trkpt>
      <trkpt lat="45.02642" lon="4.49536">
        <ele>498.9</ele>
      </trkpt>
      <trkpt lat="45.02648" lon="4.49531">
        <ele>498.5</ele>
      </trkpt>
      <trkpt lat="45.02667" lon="4.49515">
        <ele>496.9</ele>
      </trkpt>
      <trkpt lat="45.02683" lon="4.49492">
        <ele>498.7</ele>
      </trkpt>
      <trkpt lat="45.02686" lon="4.495">
        <ele>497.2</ele>
      </trkpt>
      <trkpt lat="45.02682" lon="4.49514">
        <ele>496.5</ele>
      </trkpt>
      <trkpt lat="45.02677" lon="4.49522">
        <ele>496.2</ele>
      </trkpt>
      <trkpt lat="45.02675" lon="4.49529">
        <ele>495.7</ele>
      </trkpt>
      <trkpt lat="45.02676" lon="4.49536">
        <ele>495.3</ele>
      </trkpt>
      <trkpt lat="45.02676" lon="4.49559">
        <ele>493.8</ele>
      </trkpt>
      <trkpt lat="45.0267" lon="4.49589">
        <ele>492</ele>
      </trkpt>
      <trkpt lat="45.02664" lon="4.49607">
        <ele>491.7</ele>
      </trkpt>
      <trkpt lat="45.0266" lon="4.49614">
        <ele>492</ele>
        <extensions>
          <visugpx:TrkExtension xmlns:visugpx="https://www.visugpx.com/editgpx/">
            <visugpx:node>18</visugpx:node>
            </visugpx:TrkExtension>
        </extensions>
      </trkpt>
    </trkseg>
  </trk>
</gpx>